Observation data for Persimmon Gap on 11/17/2019      Previous  Date       Current Mesonet Observations  Soil Data  Daily Summary Page  Observations in Plain Language
KPG1 170600Z 22003KT 11/06 A3004 RMK A01 T01100059  RH  071%=      5-min Rain = 0
KPG1 170601Z 21003KT 11/06 A3004 RMK A01 T01100059  RH  071%=      5-min Rain = 0
KPG1 170602Z 21003KT 11/06 A3004 RMK A01 T01100059  RH  071%=      5-min Rain = 0
KPG1 170603Z 22003KT 11/06 A3004 RMK A01 T01100059  RH  071%=      5-min Rain = 0
KPG1 170604Z 22003KT 11/06 A3004 RMK A01 T01100059  RH  071%=      5-min Rain = 0
KPG1 170605Z 22003KT 11/06 A3004 RMK A01 T01090060  RH  071%=      5-min Rain = 0
KPG1 170606Z 22002KT 11/06 A3004 RMK A01 T01090059  RH  071%=      5-min Rain = 0
KPG1 170607Z 22002KT 11/06 A3004 RMK A01 T01090059  RH  071%=      5-min Rain = 0
KPG1 170608Z 23002KT 11/06 A3004 RMK A01 T01100060  RH  071%=      5-min Rain = 0
KPG1 170609Z 21002KT 11/06 A3004 RMK A01 T01100060  RH  071%=      5-min Rain = 0
KPG1 170610Z 22002KT 11/06 A3004 RMK A01 T01100059  RH  071%=      5-min Rain = 0
KPG1 170611Z 23002KT 11/06 A3004 RMK A01 T01110060  RH  071%=      5-min Rain = 0
KPG1 170612Z 23003KT 11/06 A3004 RMK A01 T01120060  RH  071%=      5-min Rain = 0
KPG1 170613Z 23003KT 11/06 A3004 RMK A01 T01120061  RH  070%=      5-min Rain = 0
KPG1 170614Z 24003KT 11/06 A3004 RMK A01 T01130060  RH  070%=      5-min Rain = 0
KPG1 170615Z 24003KT 11/06 A3004 RMK A01 T01120060  RH  070%=      5-min Rain = 0
KPG1 170616Z 23003KT 11/06 A3004 RMK A01 T01120060  RH  070%=      5-min Rain = 0
KPG1 170617Z 23003KT 11/06 A3004 RMK A01 T01120060  RH  070%=      5-min Rain = 0
KPG1 170618Z 23003KT 11/06 A3004 RMK A01 T01110060  RH  071%=      5-min Rain = 0
KPG1 170619Z 22003KT 11/06 A3004 RMK A01 T01110060  RH  071%=      5-min Rain = 0
KPG1 170620Z 21003KT 11/06 A3004 RMK A01 T01110060  RH  071%=      5-min Rain = 0
KPG1 170621Z 21003KT 11/06 A3004 RMK A01 T01110060  RH  071%=      5-min Rain = 0
KPG1 170622Z 20003KT 11/06 A3004 RMK A01 T01110061  RH  071%=      5-min Rain = 0
KPG1 170623Z 20003KT 11/06 A3004 RMK A01 T01110060  RH  071%=      5-min Rain = 0
KPG1 170624Z 19003KT 11/06 A3004 RMK A01 T01110060  RH  071%=      5-min Rain = 0
KPG1 170625Z 19002KT 11/06 A3004 RMK A01 T01110060  RH  071%=      5-min Rain = 0
KPG1 170626Z 20002KT 11/06 A3004 RMK A01 T01100059  RH  071%=      5-min Rain = 0
KPG1 170627Z 19002KT 11/06 A3004 RMK A01 T01090059  RH  071%=      5-min Rain = 0
KPG1 170628Z 19002KT 11/06 A3004 RMK A01 T01080059  RH  072%=      5-min Rain = 0
KPG1 170629Z 19003KT 11/06 A3004 RMK A01 T01060058  RH  072%=      5-min Rain = 0
KPG1 170630Z 18003KT 11/06 A3004 RMK A01 T01060058  RH  072%=      5-min Rain = 0
KPG1 170631Z 18003KT 11/06 A3004 RMK A01 T01050057  RH  072%=      5-min Rain = 0
KPG1 170632Z 18003KT 10/06 A3004 RMK A01 T01040057  RH  073%=      5-min Rain = 0
KPG1 170633Z 19003KT 10/06 A3004 RMK A01 T01030057  RH  073%=      5-min Rain = 0
KPG1 170634Z 19003KT 10/06 A3004 RMK A01 T01030057  RH  073%=      5-min Rain = 0
KPG1 170635Z 19003KT 10/06 A3003 RMK A01 T01020057  RH  073%=      5-min Rain = 0
KPG1 170636Z 19003KT 10/06 A3003 RMK A01 T01020057  RH  074%=      5-min Rain = 0
KPG1 170637Z 20003KT 10/06 A3003 RMK A01 T01010057  RH  074%=      5-min Rain = 0
KPG1 170638Z 19002KT 10/06 A3003 RMK A01 T01010057  RH  074%=      5-min Rain = 0
KPG1 170639Z 20002KT 10/06 A3003 RMK A01 T01000058  RH  075%=      5-min Rain = 0
KPG1 170640Z 21002KT 10/06 A3003 RMK A01 T01000058  RH  075%=      5-min Rain = 0
KPG1 170641Z 21002KT 10/06 A3003 RMK A01 T01000058  RH  075%=      5-min Rain = 0
KPG1 170642Z 21002KT 10/06 A3003 RMK A01 T01010058  RH  075%=      5-min Rain = 0
KPG1 170643Z 22002KT 10/06 A3004 RMK A01 T01020058  RH  074%=      5-min Rain = 0
KPG1 170644Z 22002KT 10/06 A3004 RMK A01 T01030059  RH  074%=      5-min Rain = 0
KPG1 170645Z 23002KT 10/06 A3004 RMK A01 T01030059  RH  074%=      5-min Rain = 0
KPG1 170646Z 22002KT 10/06 A3004 RMK A01 T01040059  RH  074%=      5-min Rain = 0
KPG1 170647Z 20002KT 11/06 A3004 RMK A01 T01050059  RH  073%=      5-min Rain = 0
KPG1 170648Z 19003KT 11/06 A3004 RMK A01 T01060059  RH  073%=      5-min Rain = 0
KPG1 170649Z 19003KT 11/06 A3004 RMK A01 T01070059  RH  072%=      5-min Rain = 0
KPG1 170650Z 20002KT 11/06 A3004 RMK A01 T01070059  RH  072%=      5-min Rain = 0
KPG1 170651Z 21002KT 11/06 A3004 RMK A01 T01070059  RH  072%=      5-min Rain = 0
KPG1 170652Z 22002KT 11/06 A3004 RMK A01 T01060059  RH  072%=      5-min Rain = 0
KPG1 170653Z 22002KT 11/06 A3004 RMK A01 T01070059  RH  072%=      5-min Rain = 0
KPG1 170654Z 22002KT 11/06 A3004 RMK A01 T01070059  RH  072%=      5-min Rain = 0
KPG1 170655Z 20003KT 11/06 A3004 RMK A01 T01060059  RH  073%=      5-min Rain = 0
KPG1 170656Z 20003KT 11/06 A3004 RMK A01 T01060059  RH  073%=      5-min Rain = 0
KPG1 170657Z 21003KT 11/06 A3004 RMK A01 T01050059  RH  073%=      5-min Rain = 0
KPG1 170658Z 22003KT 11/06 A3004 RMK A01 T01050059  RH  073%=      5-min Rain = 0
KPG1 170659Z 23003KT 10/06 A3004 RMK A01 T01040057  RH  073%=      5-min Rain = 0
KPG1 170700Z 23003KT 10/06 A3004 RMK A01 T01020057  RH  074%=      5-min Rain = 0
KPG1 170701Z 24003KT 10/06 A3004 RMK A01 T01010057  RH  074%=      5-min Rain = 0
KPG1 170702Z 24003KT 10/06 A3003 RMK A01 T01000057  RH  075%=      5-min Rain = 0
KPG1 170703Z 25002KT 10/06 A3003 RMK A01 T01000058  RH  075%=      5-min Rain = 0
KPG1 170704Z 26003KT 10/06 A3003 RMK A01 T01010058  RH  075%=      5-min Rain = 0
KPG1 170705Z 24002KT 10/06 A3003 RMK A01 T01010058  RH  075%=      5-min Rain = 0
KPG1 170706Z 24002KT 10/06 A3003 RMK A01 T01010058  RH  075%=      5-min Rain = 0
KPG1 170707Z 24002KT 10/06 A3003 RMK A01 T01020059  RH  075%=      5-min Rain = 0
KPG1 170708Z 24003KT 10/06 A3003 RMK A01 T01020059  RH  074%=      5-min Rain = 0
KPG1 170709Z 23003KT 10/06 A3003 RMK A01 T01030059  RH  074%=      5-min Rain = 0
KPG1 170710Z 22003KT 10/06 A3003 RMK A01 T01040059  RH  074%=      5-min Rain = 0
KPG1 170711Z 20003KT 11/06 A3003 RMK A01 T01050059  RH  073%=      5-min Rain = 0
KPG1 170712Z 21003KT 11/06 A3003 RMK A01 T01050059  RH  073%=      5-min Rain = 0
KPG1 170713Z 22003KT 11/06 A3003 RMK A01 T01050059  RH  073%=      5-min Rain = 0
KPG1 170714Z 21004KT 10/06 A3003 RMK A01 T01040059  RH  073%=      5-min Rain = 0
KPG1 170715Z 20003KT 10/06 A3003 RMK A01 T01040059  RH  074%=      5-min Rain = 0
KPG1 170716Z 19004KT 10/06 A3003 RMK A01 T01020058  RH  074%=      5-min Rain = 0
KPG1 170717Z 18004KT 10/06 A3003 RMK A01 T01010058  RH  074%=      5-min Rain = 0
KPG1 170718Z 18004KT 10/06 A3003 RMK A01 T01010058  RH  075%=      5-min Rain = 0
KPG1 170719Z 18004KT 10/06 A3003 RMK A01 T00990056  RH  075%=      5-min Rain = 0
KPG1 170720Z 19005KT 10/06 A3003 RMK A01 T00970055  RH  075%=      5-min Rain = 0
KPG1 170721Z 19005KT 10/06 A3003 RMK A01 T00960057  RH  077%=      5-min Rain = 0
KPG1 170722Z 19005KT 10/06 A3003 RMK A01 T00970058  RH  077%=      5-min Rain = 0
KPG1 170723Z 19005KT 10/06 A3003 RMK A01 T00970057  RH  076%=      5-min Rain = 0
KPG1 170724Z 20004KT 10/06 A3003 RMK A01 T00960057  RH  076%=      5-min Rain = 0
KPG1 170725Z 20004KT 10/06 A3003 RMK A01 T00950056  RH  077%=      5-min Rain = 0
KPG1 170726Z 21004KT 09/06 A3003 RMK A01 T00930056  RH  078%=      5-min Rain = 0
KPG1 170727Z 21005KT 09/06 A3003 RMK A01 T00930057  RH  078%=      5-min Rain = 0
KPG1 170728Z 22005KT 09/06 A3003 RMK A01 T00930057  RH  078%=      5-min Rain = 0
KPG1 170729Z 22005KT 09/06 A3003 RMK A01 T00930057  RH  078%=      5-min Rain = 0
KPG1 170730Z 22005KT 09/06 A3003 RMK A01 T00930057  RH  078%=      5-min Rain = 0
KPG1 170731Z 23004KT 09/06 A3003 RMK A01 T00940057  RH  078%=      5-min Rain = 0
KPG1 170732Z 23004KT 09/06 A3003 RMK A01 T00940057  RH  078%=      5-min Rain = 0
KPG1 170733Z 22005KT 09/06 A3003 RMK A01 T00940057  RH  078%=      5-min Rain = 0
KPG1 170734Z 21005KT 09/06 A3003 RMK A01 T00940057  RH  078%=      5-min Rain = 0
KPG1 170735Z 22004KT 09/06 A3003 RMK A01 T00940057  RH  078%=      5-min Rain = 0
KPG1 170736Z 22004KT 09/06 A3003 RMK A01 T00940057  RH  078%=      5-min Rain = 0
KPG1 170737Z 22004KT 09/06 A3003 RMK A01 T00940058  RH  078%=      5-min Rain = 0
KPG1 170738Z 20005KT 09/06 A3003 RMK A01 T00940058  RH  078%=      5-min Rain = 0
KPG1 170739Z 21004KT 09/06 A3003 RMK A01 T00940058  RH  078%=      5-min Rain = 0
KPG1 170740Z 21004KT 10/06 A3003 RMK A01 T00950057  RH  077%=      5-min Rain = 0
KPG1 170741Z 21004KT 09/06 A3003 RMK A01 T00940056  RH  077%=      5-min Rain = 0
KPG1 170742Z 20004KT 09/06 A3003 RMK A01 T00920055  RH  078%=      5-min Rain = 0
KPG1 170743Z 20003KT 09/05 A3003 RMK A01 T00900053  RH  078%=      5-min Rain = 0
KPG1 170744Z 18004KT 09/05 A3003 RMK A01 T00880053  RH  079%=      5-min Rain = 0
KPG1 170745Z 18004KT 09/05 A3003 RMK A01 T00870053  RH  079%=      5-min Rain = 0
KPG1 170746Z 19004KT 09/05 A3003 RMK A01 T00860053  RH  080%=      5-min Rain = 0
KPG1 170747Z 19005KT 09/05 A3003 RMK A01 T00850052  RH  080%=      5-min Rain = 0
KPG1 170748Z 21005KT 08/05 A3003 RMK A01 T00840052  RH  081%=      5-min Rain = 0
KPG1 170749Z 22005KT 08/05 A3003 RMK A01 T00830053  RH  081%=      5-min Rain = 0
KPG1 170750Z 23005KT 08/05 A3003 RMK A01 T00830054  RH  082%=      5-min Rain = 0
KPG1 170751Z 23005KT 08/06 A3003 RMK A01 T00840056  RH  082%=      5-min Rain = 0
KPG1 170752Z 23005KT 08/06 A3003 RMK A01 T00840056  RH  082%=      5-min Rain = 0
KPG1 170753Z 23005KT 09/06 A3003 RMK A01 T00850056  RH  082%=      5-min Rain = 0
KPG1 170754Z 24005KT 09/06 A3003 RMK A01 T00850055  RH  082%=      5-min Rain = 0
KPG1 170755Z 23005KT 08/06 A3003 RMK A01 T00840055  RH  082%=      5-min Rain = 0
KPG1 170756Z 24005KT 08/06 A3003 RMK A01 T00840056  RH  082%=      5-min Rain = 0
KPG1 170757Z 24005KT 09/06 A3003 RMK A01 T00850056  RH  082%=      5-min Rain = 0
KPG1 170758Z 24005KT 09/06 A3003 RMK A01 T00850057  RH  082%=      5-min Rain = 0
KPG1 170759Z 23005KT 09/06 A3003 RMK A01 T00860057  RH  082%=      5-min Rain = 0
KPG1 170800Z 22005KT 09/06 A3003 RMK A01 T00880058  RH  082%=      5-min Rain = 0
KPG1 170801Z 22004KT 09/06 A3003 RMK A01 T00890059  RH  081%=      5-min Rain = 0
KPG1 170802Z 22004KT 09/06 A3003 RMK A01 T00900058  RH  081%=      5-min Rain = 0
KPG1 170803Z 23004KT 09/06 A3003 RMK A01 T00910059  RH  080%=      5-min Rain = 0
KPG1 170804Z 23004KT 09/06 A3003 RMK A01 T00910059  RH  080%=      5-min Rain = 0
KPG1 170805Z 23004KT 09/06 A3003 RMK A01 T00920059  RH  080%=      5-min Rain = 0
KPG1 170806Z 23005KT 09/06 A3003 RMK A01 T00930059  RH  080%=      5-min Rain = 0
KPG1 170807Z 23004KT 09/06 A3003 RMK A01 T00930059  RH  079%=      5-min Rain = 0
KPG1 170808Z 23004KT 09/06 A3003 RMK A01 T00930059  RH  079%=      5-min Rain = 0
KPG1 170809Z 23004KT 09/06 A3003 RMK A01 T00930059  RH  079%=      5-min Rain = 0
KPG1 170810Z 23004KT 09/06 A3003 RMK A01 T00940060  RH  079%=      5-min Rain = 0
KPG1 170811Z 22004KT 10/06 A3003 RMK A01 T00950061  RH  079%=      5-min Rain = 0
KPG1 170812Z 23004KT 10/06 A3003 RMK A01 T00970061  RH  078%=      5-min Rain = 0
KPG1 170813Z 23005KT 10/06 A3003 RMK A01 T00960060  RH  078%=      5-min Rain = 0
KPG1 170814Z 23005KT 10/06 A3003 RMK A01 T00950060  RH  079%=      5-min Rain = 0
KPG1 170815Z 24006KT 10/06 A3003 RMK A01 T00960060  RH  079%=      5-min Rain = 0
KPG1 170816Z 23006KT 10/06 A3003 RMK A01 T00970061  RH  078%=      5-min Rain = 0
KPG1 170817Z 23006KT 10/06 A3003 RMK A01 T00980061  RH  078%=      5-min Rain = 0
KPG1 170818Z 23006KT 10/06 A3003 RMK A01 T00980061  RH  078%=      5-min Rain = 0
KPG1 170819Z 23006KT 10/06 A3003 RMK A01 T00980061  RH  078%=      5-min Rain = 0
KPG1 170820Z 22006KT 10/06 A3003 RMK A01 T00980061  RH  078%=      5-min Rain = 0
KPG1 170821Z 22006KT 10/06 A3003 RMK A01 T00970060  RH  078%=      5-min Rain = 0
KPG1 170822Z 22006KT 10/06 A3003 RMK A01 T00950059  RH  078%=      5-min Rain = 0
KPG1 170823Z 22006KT 09/06 A3003 RMK A01 T00940059  RH  079%=      5-min Rain = 0
KPG1 170824Z 22005KT 09/06 A3003 RMK A01 T00930059  RH  079%=      5-min Rain = 0
KPG1 170825Z 22005KT 09/06 A3003 RMK A01 T00920059  RH  079%=      5-min Rain = 0
KPG1 170826Z 22005KT 09/06 A3003 RMK A01 T00920059  RH  080%=      5-min Rain = 0
KPG1 170827Z 21004KT 09/06 A3003 RMK A01 T00920059  RH  080%=      5-min Rain = 0
KPG1 170828Z 21004KT 09/06 A3003 RMK A01 T00920059  RH  080%=      5-min Rain = 0
KPG1 170829Z 20004KT 09/06 A3003 RMK A01 T00920059  RH  080%=      5-min Rain = 0
KPG1 170830Z 19004KT 09/06 A3004 RMK A01 T00920059  RH  080%=      5-min Rain = 0
KPG1 170831Z 19004KT 09/06 A3003 RMK A01 T00910059  RH  080%=      5-min Rain = 0
KPG1 170832Z 19004KT 09/06 A3003 RMK A01 T00910059  RH  080%=      5-min Rain = 0
KPG1 170833Z 19003KT 09/06 A3003 RMK A01 T00910058  RH  080%=      5-min Rain = 0
KPG1 170834Z 21003KT 09/06 A3003 RMK A01 T00900058  RH  080%=      5-min Rain = 0
KPG1 170835Z 21003KT 09/06 A3003 RMK A01 T00890058  RH  081%=      5-min Rain = 0
KPG1 170836Z 22003KT 09/06 A3003 RMK A01 T00890058  RH  081%=      5-min Rain = 0
KPG1 170837Z 23003KT 09/06 A3003 RMK A01 T00890059  RH  081%=      5-min Rain = 0
KPG1 170838Z 23002KT 09/06 A3003 RMK A01 T00890059  RH  082%=      5-min Rain = 0
KPG1 170839Z 24003KT 09/06 A3003 RMK A01 T00900060  RH  082%=      5-min Rain = 0
KPG1 170840Z 23003KT 09/06 A3003 RMK A01 T00910060  RH  081%=      5-min Rain = 0
KPG1 170841Z 22003KT 09/06 A3003 RMK A01 T00920060  RH  081%=      5-min Rain = 0
KPG1 170842Z 23003KT 09/06 A3003 RMK A01 T00920061  RH  081%=      5-min Rain = 0
KPG1 170843Z 23002KT 09/06 A3003 RMK A01 T00940061  RH  080%=      5-min Rain = 0
KPG1 170844Z 22002KT 10/06 A3003 RMK A01 T00950061  RH  080%=      5-min Rain = 0
KPG1 170845Z 21002KT 10/06 A3003 RMK A01 T00960062  RH  079%=      5-min Rain = 0
KPG1 170846Z 19003KT 10/06 A3003 RMK A01 T00960062  RH  079%=      5-min Rain = 0
KPG1 170847Z 20003KT 10/06 A3003 RMK A01 T00970062  RH  079%=      5-min Rain = 0
KPG1 170848Z 20003KT 10/06 A3003 RMK A01 T00970061  RH  078%=      5-min Rain = 0
KPG1 170849Z 21003KT 10/06 A3003 RMK A01 T00970061  RH  078%=      5-min Rain = 0
KPG1 170850Z 20004KT 10/06 A3003 RMK A01 T00970061  RH  079%=      5-min Rain = 0
KPG1 170851Z 21004KT 10/06 A3003 RMK A01 T00960061  RH  079%=      5-min Rain = 0
KPG1 170852Z 21004KT 09/06 A3003 RMK A01 T00940059  RH  079%=      5-min Rain = 0
KPG1 170853Z 21004KT 09/06 A3003 RMK A01 T00930060  RH  080%=      5-min Rain = 0
KPG1 170854Z 21005KT 09/06 A3003 RMK A01 T00920059  RH  080%=      5-min Rain = 0
KPG1 170855Z 22005KT 09/06 A3003 RMK A01 T00910059  RH  080%=      5-min Rain = 0
KPG1 170856Z 23005KT 09/06 A3003 RMK A01 T00890059  RH  081%=      5-min Rain = 0
KPG1 170857Z 24005KT 09/06 A3003 RMK A01 T00890059  RH  082%=      5-min Rain = 0
KPG1 170858Z 24005KT 09/06 A3003 RMK A01 T00880059  RH  082%=      5-min Rain = 0
KPG1 170859Z 24005KT 09/06 A3003 RMK A01 T00880059  RH  082%=      5-min Rain = 0
KPG1 170900Z 24005KT 09/06 A3003 RMK A01 T00880059  RH  082%=      5-min Rain = 0
KPG1 170901Z 24004KT 09/06 A3003 RMK A01 T00880060  RH  082%=      5-min Rain = 0
KPG1 170902Z 24004KT 09/06 A3003 RMK A01 T00890060  RH  082%=      5-min Rain = 0
KPG1 170903Z 23004KT 09/06 A3003 RMK A01 T00890060  RH  082%=      5-min Rain = 0
KPG1 170904Z 23004KT 09/06 A3003 RMK A01 T00900060  RH  082%=      5-min Rain = 0
KPG1 170905Z 24004KT 09/06 A3003 RMK A01 T00900060  RH  081%=      5-min Rain = 0
KPG1 170906Z 23004KT 09/06 A3003 RMK A01 T00900060  RH  081%=      5-min Rain = 0
KPG1 170907Z 23004KT 09/06 A3003 RMK A01 T00900060  RH  082%=      5-min Rain = 0
KPG1 170908Z 23004KT 09/06 A3003 RMK A01 T00900060  RH  082%=      5-min Rain = 0
KPG1 170909Z 22003KT 09/06 A3003 RMK A01 T00900059  RH  081%=      5-min Rain = 0
KPG1 170910Z 22004KT 09/06 A3003 RMK A01 T00880058  RH  081%=      5-min Rain = 0
KPG1 170911Z 23004KT 09/06 A3003 RMK A01 T00870058  RH  082%=      5-min Rain = 0
KPG1 170912Z 23005KT 09/06 A3003 RMK A01 T00860058  RH  083%=      5-min Rain = 0
KPG1 170913Z 23005KT 09/06 A3003 RMK A01 T00850058  RH  083%=      5-min Rain = 0
KPG1 170914Z 22004KT 08/06 A3003 RMK A01 T00840057  RH  083%=      5-min Rain = 0
KPG1 170915Z 22004KT 08/06 A3003 RMK A01 T00830057  RH  084%=      5-min Rain = 0
KPG1 170916Z 22004KT 08/06 A3003 RMK A01 T00820057  RH  084%=      5-min Rain = 0
KPG1 170917Z 21004KT 08/06 A3003 RMK A01 T00810057  RH  085%=      5-min Rain = 0
KPG1 170918Z 20004KT 08/06 A3003 RMK A01 T00810057  RH  085%=      5-min Rain = 0
KPG1 170919Z 20004KT 08/06 A3003 RMK A01 T00820058  RH  085%=      5-min Rain = 0
KPG1 170920Z 20004KT 08/06 A3003 RMK A01 T00830058  RH  084%=      5-min Rain = 0
KPG1 170921Z 19004KT 08/06 A3003 RMK A01 T00830058  RH  084%=      5-min Rain = 0
KPG1 170922Z 20004KT 08/06 A3003 RMK A01 T00830058  RH  084%=      5-min Rain = 0
KPG1 170923Z 20004KT 08/06 A3003 RMK A01 T00840058  RH  084%=      5-min Rain = 0
KPG1 170924Z 19004KT 08/06 A3003 RMK A01 T00840058  RH  084%=      5-min Rain = 0
KPG1 170925Z 19004KT 08/06 A3003 RMK A01 T00840059  RH  084%=      5-min Rain = 0
KPG1 170926Z 21004KT 09/06 A3003 RMK A01 T00860060  RH  084%=      5-min Rain = 0
KPG1 170927Z 21004KT 09/06 A3003 RMK A01 T00870061  RH  084%=      5-min Rain = 0
KPG1 170928Z 22005KT 09/06 A3003 RMK A01 T00880061  RH  083%=      5-min Rain = 0
KPG1 170929Z 23005KT 09/06 A3003 RMK A01 T00890061  RH  083%=      5-min Rain = 0
KPG1 170930Z 23006KT 09/06 A3002 RMK A01 T00890060  RH  082%=      5-min Rain = 0
KPG1 170931Z 24006KT 09/06 A3003 RMK A01 T00870058  RH  082%=      5-min Rain = 0
KPG1 170932Z 25007KT 09/06 A3003 RMK A01 T00850057  RH  083%=      5-min Rain = 0
KPG1 170933Z 24007KT 08/06 A3002 RMK A01 T00830058  RH  084%=      5-min Rain = 0
KPG1 170934Z 24007KT 08/06 A3002 RMK A01 T00840060  RH  085%=      5-min Rain = 0
KPG1 170935Z 24008KT 09/06 A3002 RMK A01 T00860060  RH  084%=      5-min Rain = 0
KPG1 170936Z 25008KT 09/06 A3002 RMK A01 T00870060  RH  084%=      5-min Rain = 0
KPG1 170937Z 26007KT 09/06 A3003 RMK A01 T00870060  RH  083%=      5-min Rain = 0
KPG1 170938Z 26006KT 09/06 A3003 RMK A01 T00880061  RH  084%=      5-min Rain = 0
KPG1 170939Z 26006KT 09/06 A3003 RMK A01 T00890063  RH  083%=      5-min Rain = 0
KPG1 170940Z 26005KT 09/06 A3003 RMK A01 T00890062  RH  083%=      5-min Rain = 0
KPG1 170941Z 24005KT 09/06 A3003 RMK A01 T00910063  RH  083%=      5-min Rain = 0
KPG1 170942Z 20003KT 09/06 A3003 RMK A01 T00910062  RH  082%=      5-min Rain = 0
KPG1 170943Z 19002KT 09/06 A3003 RMK A01 T00900061  RH  082%=      5-min Rain = 0
KPG1 170944Z 18003KT 09/06 A3003 RMK A01 T00900061  RH  082%=      5-min Rain = 0
KPG1 170945Z 17003KT 09/06 A3003 RMK A01 T00890061  RH  083%=      5-min Rain = 0
KPG1 170946Z 20003KT 09/06 A3003 RMK A01 T00890061  RH  083%=      5-min Rain = 0
KPG1 170947Z 19003KT 09/06 A3003 RMK A01 T00890062  RH  083%=      5-min Rain = 0
KPG1 170948Z 20004KT 09/06 A3003 RMK A01 T00900063  RH  083%=      5-min Rain = 0
KPG1 170949Z 19004KT 09/06 A3003 RMK A01 T00910063  RH  083%=      5-min Rain = 0
KPG1 170950Z 20005KT 09/06 A3003 RMK A01 T00910063  RH  083%=      5-min Rain = 0
KPG1 170951Z 20004KT 09/06 A3003 RMK A01 T00910063  RH  083%=      5-min Rain = 0
KPG1 170952Z 19005KT 09/06 A3003 RMK A01 T00920063  RH  082%=      5-min Rain = 0
KPG1 170953Z 20004KT 09/06 A3003 RMK A01 T00920063  RH  082%=      5-min Rain = 0
KPG1 170954Z 18004KT 09/06 A3004 RMK A01 T00920062  RH  082%=      5-min Rain = 0
KPG1 170955Z 19004KT 09/06 A3004 RMK A01 T00910062  RH  082%=      5-min Rain = 0
KPG1 170956Z 19004KT 09/06 A3004 RMK A01 T00900062  RH  083%=      5-min Rain = 0
KPG1 170957Z 19003KT 09/06 A3004 RMK A01 T00900062  RH  083%=      5-min Rain = 0
KPG1 170958Z 19003KT 09/06 A3004 RMK A01 T00900062  RH  083%=      5-min Rain = 0
KPG1 170959Z 19003KT 09/06 A3004 RMK A01 T00890062  RH  083%=      5-min Rain = 0
KPG1 171000Z 18003KT 09/06 A3004 RMK A01 T00890062  RH  083%=      5-min Rain = 0
KPG1 171001Z 20003KT 09/06 A3004 RMK A01 T00900062  RH  083%=      5-min Rain = 0
KPG1 171002Z 18002KT 09/06 A3004 RMK A01 T00910063  RH  083%=      5-min Rain = 0
KPG1 171003Z 16002KT 09/06 A3004 RMK A01 T00920064  RH  082%=      5-min Rain = 0
KPG1 171004Z 16002KT 09/06 A3004 RMK A01 T00930063  RH  082%=      5-min Rain = 0
KPG1 171005Z 22002KT 09/06 A3004 RMK A01 T00930063  RH  082%=      5-min Rain = 0
KPG1 171006Z 25002KT 09/06 A3004 RMK A01 T00930064  RH  082%=      5-min Rain = 0
KPG1 171007Z 26002KT 09/06 A3004 RMK A01 T00940064  RH  082%=      5-min Rain = 0
KPG1 171008Z 24002KT 10/06 A3004 RMK A01 T00950064  RH  081%=      5-min Rain = 0
KPG1 171009Z 24002KT 09/06 A3004 RMK A01 T00940064  RH  081%=      5-min Rain = 0
KPG1 171010Z 24002KT 09/06 A3004 RMK A01 T00940063  RH  081%=      5-min Rain = 0
KPG1 171011Z 24003KT 09/06 A3004 RMK A01 T00930063  RH  081%=      5-min Rain = 0
KPG1 171012Z 23003KT 09/06 A3004 RMK A01 T00930063  RH  082%=      5-min Rain = 0
KPG1 171013Z 23004KT 09/06 A3004 RMK A01 T00940064  RH  082%=      5-min Rain = 0
KPG1 171014Z 23004KT 10/06 A3004 RMK A01 T00950064  RH  081%=      5-min Rain = 0
KPG1 171015Z 23004KT 10/06 A3004 RMK A01 T00950064  RH  081%=      5-min Rain = 0
KPG1 171016Z 23004KT 10/06 A3004 RMK A01 T00950064  RH  081%=      5-min Rain = 0
KPG1 171017Z 24004KT 10/06 A3004 RMK A01 T00950064  RH  081%=      5-min Rain = 0
KPG1 171018Z 23003KT 09/06 A3004 RMK A01 T00940062  RH  080%=      5-min Rain = 0
KPG1 171019Z 24003KT 09/06 A3004 RMK A01 T00930063  RH  082%=      5-min Rain = 0
KPG1 171020Z 25004KT 09/06 A3004 RMK A01 T00930064  RH  082%=      5-min Rain = 0
KPG1 171021Z 25004KT 09/06 A3004 RMK A01 T00920064  RH  082%=      5-min Rain = 0
KPG1 171022Z 24004KT 09/06 A3004 RMK A01 T00920064  RH  083%=      5-min Rain = 0
KPG1 171023Z 24004KT 09/06 A3004 RMK A01 T00920064  RH  083%=      5-min Rain = 0
KPG1 171024Z 25004KT 09/06 A3004 RMK A01 T00910064  RH  083%=      5-min Rain = 0
KPG1 171025Z 25004KT 09/06 A3005 RMK A01 T00910063  RH  083%=      5-min Rain = 0
KPG1 171026Z 24004KT 09/06 A3004 RMK A01 T00910064  RH  083%=      5-min Rain = 0
KPG1 171027Z 24004KT 09/07 A3004 RMK A01 T00910065  RH  084%=      5-min Rain = 0
KPG1 171028Z 24005KT 09/06 A3005 RMK A01 T00920064  RH  083%=      5-min Rain = 0
KPG1 171029Z 24005KT 09/06 A3004 RMK A01 T00920064  RH  083%=      5-min Rain = 0
KPG1 171030Z 23005KT 09/07 A3004 RMK A01 T00920065  RH  083%=      5-min Rain = 0
KPG1 171031Z 23005KT 09/07 A3004 RMK A01 T00930065  RH  083%=      5-min Rain = 0
KPG1 171032Z 23003KT 09/07 A3005 RMK A01 T00930065  RH  082%=      5-min Rain = 0
KPG1 171033Z 25003KT 09/06 A3005 RMK A01 T00930064  RH  082%=      5-min Rain = 0
KPG1 171034Z 26002KT 09/06 A3005 RMK A01 T00930064  RH  082%=      5-min Rain = 0
KPG1 171035Z 27001KT 09/07 A3005 RMK A01 T00920065  RH  083%=      5-min Rain = 0
KPG1 171036Z 27002KT 09/07 A3005 RMK A01 T00930065  RH  083%=      5-min Rain = 0
KPG1 171037Z 26002KT 09/07 A3005 RMK A01 T00930065  RH  083%=      5-min Rain = 0
KPG1 171038Z 27001KT 09/07 A3005 RMK A01 T00930066  RH  083%=      5-min Rain = 0
KPG1 171039Z 28001KT 09/07 A3005 RMK A01 T00940066  RH  083%=      5-min Rain = 0
KPG1 171040Z 28000KT 09/06 A3005 RMK A01 T00940064  RH  082%=      5-min Rain = 0
KPG1 171041Z 28000KT 09/06 A3005 RMK A01 T00920064  RH  082%=      5-min Rain = 0
KPG1 171042Z 32001KT 09/07 A3005 RMK A01 T00920065  RH  083%=      5-min Rain = 0
KPG1 171043Z 33002KT 09/07 A3005 RMK A01 T00920065  RH  083%=      5-min Rain = 0
KPG1 171044Z 35002KT 09/07 A3005 RMK A01 T00920065  RH  083%=      5-min Rain = 0
KPG1 171045Z 02002KT 09/07 A3005 RMK A01 T00920065  RH  084%=      5-min Rain = 0
KPG1 171046Z 05002KT 09/07 A3005 RMK A01 T00930066  RH  084%=      5-min Rain = 0
KPG1 171047Z 09001KT 10/07 A3005 RMK A01 T00950067  RH  083%=      5-min Rain = 0
KPG1 171048Z 09002KT 10/07 A3005 RMK A01 T00970067  RH  082%=      5-min Rain = 0
KPG1 171049Z 13003KT 10/07 A3005 RMK A01 T00960066  RH  082%=      5-min Rain = 0
KPG1 171050Z 13004KT 10/07 A3005 RMK A01 T00980070  RH  082%=      5-min Rain = 0
KPG1 171051Z 15003KT 10/07 A3005 RMK A01 T01040073  RH  081%=      5-min Rain = 0
KPG1 171052Z 16004KT 11/07 A3005 RMK A01 T01090072  RH  078%=      5-min Rain = 0
KPG1 171053Z 18004KT 11/07 A3005 RMK A01 T01090071  RH  077%=      5-min Rain = 0
KPG1 171054Z 18005KT 11/07 A3005 RMK A01 T01100070  RH  077%=      5-min Rain = 0
KPG1 171055Z 18004KT 11/07 A3005 RMK A01 T01110070  RH  076%=      5-min Rain = 0
KPG1 171056Z 20004KT 11/07 A3005 RMK A01 T01110070  RH  076%=      5-min Rain = 0
KPG1 171057Z 20003KT 11/07 A3005 RMK A01 T01080067  RH  076%=      5-min Rain = 0
KPG1 171058Z 19003KT 11/07 A3005 RMK A01 T01050067  RH  077%=      5-min Rain = 0
KPG1 171059Z 18004KT 10/07 A3005 RMK A01 T01030068  RH  079%=      5-min Rain = 0
KPG1 171100Z 22003KT 10/07 A3005 RMK A01 T01030068  RH  079%=      5-min Rain = 0
KPG1 171101Z 24002KT 10/07 A3005 RMK A01 T01030068  RH  079%=      5-min Rain = 0
KPG1 171102Z 24003KT 10/07 A3005 RMK A01 T01030069  RH  079%=      5-min Rain = 0
KPG1 171103Z 21004KT 10/07 A3005 RMK A01 T01040069  RH  079%=      5-min Rain = 0
KPG1 171104Z 24002KT 11/07 A3005 RMK A01 T01050069  RH  078%=      5-min Rain = 0
KPG1 171105Z 22003KT 11/07 A3005 RMK A01 T01060069  RH  078%=      5-min Rain = 0
KPG1 171106Z 22003KT 11/07 A3005 RMK A01 T01060069  RH  078%=      5-min Rain = 0
KPG1 171107Z 22003KT 11/07 A3005 RMK A01 T01050068  RH  078%=      5-min Rain = 0
KPG1 171108Z 23003KT 11/07 A3005 RMK A01 T01050069  RH  078%=      5-min Rain = 0
KPG1 171109Z 22004KT 10/07 A3005 RMK A01 T01040068  RH  078%=      5-min Rain = 0
KPG1 171110Z 23003KT 10/07 A3005 RMK A01 T01040068  RH  078%=      5-min Rain = 0
KPG1 171111Z 24003KT 10/07 A3005 RMK A01 T01030068  RH  079%=      5-min Rain = 0
KPG1 171112Z 23004KT 10/07 A3005 RMK A01 T01010066  RH  079%=      5-min Rain = 0
KPG1 171113Z 23004KT 10/07 A3005 RMK A01 T01000067  RH  080%=      5-min Rain = 0
KPG1 171114Z 23004KT 10/07 A3005 RMK A01 T00990067  RH  080%=      5-min Rain = 0
KPG1 171115Z 22004KT 10/07 A3005 RMK A01 T00990067  RH  080%=      5-min Rain = 0
KPG1 171116Z 22005KT 10/07 A3005 RMK A01 T00980066  RH  081%=      5-min Rain = 0
KPG1 171117Z 22004KT 10/07 A3005 RMK A01 T00960066  RH  081%=      5-min Rain = 0
KPG1 171118Z 22004KT 10/07 A3005 RMK A01 T00960066  RH  082%=      5-min Rain = 0
KPG1 171119Z 22004KT 10/07 A3005 RMK A01 T00950066  RH  082%=      5-min Rain = 0
KPG1 171120Z 22004KT 10/07 A3005 RMK A01 T00950066  RH  082%=      5-min Rain = 0
KPG1 171121Z 20003KT 09/06 A3005 RMK A01 T00930064  RH  082%=      5-min Rain = 0
KPG1 171122Z 18003KT 09/06 A3005 RMK A01 T00910063  RH  083%=      5-min Rain = 0
KPG1 171123Z 18003KT 09/06 A3005 RMK A01 T00900064  RH  084%=      5-min Rain = 0
KPG1 171124Z 17003KT 09/06 A3005 RMK A01 T00900064  RH  084%=      5-min Rain = 0
KPG1 171125Z 17004KT 09/07 A3005 RMK A01 T00910066  RH  084%=      5-min Rain = 0
KPG1 171126Z 17004KT 09/07 A3005 RMK A01 T00940068  RH  084%=      5-min Rain = 0
KPG1 171127Z 17005KT 10/07 A3005 RMK A01 T00980069  RH  082%=      5-min Rain = 0
KPG1 171128Z 16007KT 10/07 A3005 RMK A01 T01010069  RH  081%=      5-min Rain = 0
KPG1 171129Z 16006KT 10/07 A3005 RMK A01 T01030070  RH  080%=      5-min Rain = 0
KPG1 171130Z 14004KT 10/07 A3005 RMK A01 T01040069  RH  079%=      5-min Rain = 0
KPG1 171131Z 13004KT 11/07 A3005 RMK A01 T01050070  RH  079%=      5-min Rain = 0
KPG1 171132Z 15004KT 11/07 A3006 RMK A01 T01060070  RH  078%=      5-min Rain = 0
KPG1 171133Z 18003KT 11/07 A3006 RMK A01 T01060070  RH  078%=      5-min Rain = 0
KPG1 171134Z 16004KT 11/07 A3006 RMK A01 T01080071  RH  078%=      5-min Rain = 0
KPG1 171135Z 19005KT 11/07 A3006 RMK A01 T01090070  RH  077%=      5-min Rain = 0
KPG1 171136Z 20004KT 11/07 A3006 RMK A01 T01070068  RH  077%=      5-min Rain = 0
KPG1 171137Z 20005KT 10/07 A3006 RMK A01 T01040069  RH  078%=      5-min Rain = 0
KPG1 171138Z 17005KT 11/07 A3006 RMK A01 T01050071  RH  080%=      5-min Rain = 0
KPG1 171139Z 19006KT 11/07 A3006 RMK A01 T01110073  RH  077%=      5-min Rain = 0
KPG1 171140Z 18008KT 11/07 A3006 RMK A01 T01130073  RH  076%=      5-min Rain = 0
KPG1 171141Z 17006KT 12/08 A3006 RMK A01 T01180075  RH  075%=      5-min Rain = 0
KPG1 171142Z 18006KT 12/07 A3006 RMK A01 T01200074  RH  073%=      5-min Rain = 0
KPG1 171143Z 20005KT 12/07 A3006 RMK A01 T01200073  RH  073%=      5-min Rain = 0
KPG1 171144Z 22005KT 12/07 A3006 RMK A01 T01180072  RH  073%=      5-min Rain = 0
KPG1 171145Z 21004KT 12/07 A3006 RMK A01 T01150071  RH  074%=      5-min Rain = 0
KPG1 171146Z 18005KT 11/07 A3006 RMK A01 T01130071  RH  075%=      5-min Rain = 0
KPG1 171147Z 17005KT 11/07 A3006 RMK A01 T01110070  RH  076%=      5-min Rain = 0
KPG1 171148Z 19005KT 11/07 A3006 RMK A01 T01100070  RH  076%=      5-min Rain = 0
KPG1 171149Z 20003KT 11/07 A3006 RMK A01 T01090070  RH  077%=      5-min Rain = 0
KPG1 171150Z 20003KT 11/07 A3006 RMK A01 T01070069  RH  077%=      5-min Rain = 0
KPG1 171151Z 23003KT 11/07 A3006 RMK A01 T01050069  RH  078%=      5-min Rain = 0
KPG1 171152Z 22003KT 10/07 A3006 RMK A01 T01040069  RH  079%=      5-min Rain = 0
KPG1 171153Z 21003KT 10/07 A3006 RMK A01 T01040069  RH  079%=      5-min Rain = 0
KPG1 171154Z 19004KT 10/07 A3006 RMK A01 T01030069  RH  079%=      5-min Rain = 0
KPG1 171155Z 19004KT 10/07 A3006 RMK A01 T01030069  RH  079%=      5-min Rain = 0
KPG1 171156Z 19004KT 10/07 A3006 RMK A01 T01020067  RH  079%=      5-min Rain = 0
KPG1 171157Z 21003KT 10/07 A3006 RMK A01 T01000067  RH  080%=      5-min Rain = 0
KPG1 171158Z 21003KT 10/07 A3006 RMK A01 T00990068  RH  081%=      5-min Rain = 0
KPG1 171159Z 20004KT 10/07 A3006 RMK A01 T00990068  RH  081%=      5-min Rain = 0
KPG1 171200Z 20004KT 10/07 A3006 RMK A01 T01000068  RH  081%=      5-min Rain = 0
KPG1 171201Z 21004KT 10/07 A3006 RMK A01 T01000068  RH  080%=      5-min Rain = 0
KPG1 171202Z 21005KT 10/07 A3006 RMK A01 T01000067  RH  080%=      5-min Rain = 0
KPG1 171203Z 21005KT 10/07 A3006 RMK A01 T01000068  RH  081%=      5-min Rain = 0
KPG1 171204Z 22005KT 10/07 A3006 RMK A01 T00990068  RH  081%=      5-min Rain = 0
KPG1 171205Z 23007KT 10/07 A3006 RMK A01 T01000068  RH  081%=      5-min Rain = 0
KPG1 171206Z 23007KT 10/07 A3006 RMK A01 T01000068  RH  080%=      5-min Rain = 0
KPG1 171207Z 24007KT 10/07 A3006 RMK A01 T01010068  RH  080%=      5-min Rain = 0
KPG1 171208Z 24007KT 10/07 A3006 RMK A01 T01010068  RH  080%=      5-min Rain = 0
KPG1 171209Z 24008KT 10/07 A3006 RMK A01 T01010068  RH  080%=      5-min Rain = 0
KPG1 171210Z 24007KT 10/07 A3006 RMK A01 T01010068  RH  080%=      5-min Rain = 0
KPG1 171211Z 23007KT 10/07 A3006 RMK A01 T01020069  RH  080%=      5-min Rain = 0
KPG1 171212Z 22007KT 10/07 A3006 RMK A01 T01030068  RH  079%=      5-min Rain = 0
KPG1 171213Z 21006KT 10/07 A3006 RMK A01 T01020067  RH  079%=      5-min Rain = 0
KPG1 171214Z 19006KT 10/07 A3006 RMK A01 T01010067  RH  079%=      5-min Rain = 0
KPG1 171215Z 18007KT 10/07 A3006 RMK A01 T01010068  RH  080%=      5-min Rain = 0
KPG1 171216Z 19008KT 10/07 A3006 RMK A01 T01020069  RH  080%=      5-min Rain = 0
KPG1 171217Z 19007KT 11/07 A3006 RMK A01 T01050070  RH  079%=      5-min Rain = 0
KPG1 171218Z 19007KT 11/07 A3006 RMK A01 T01080070  RH  078%=      5-min Rain = 0
KPG1 171219Z 18008KT 11/07 A3006 RMK A01 T01080069  RH  077%=      5-min Rain = 0
KPG1 171220Z 18008KT 11/07 A3006 RMK A01 T01070069  RH  077%=      5-min Rain = 0
KPG1 171221Z 18009KT 11/07 A3006 RMK A01 T01050069  RH  078%=      5-min Rain = 0
KPG1 171222Z 18010KT 11/07 A3006 RMK A01 T01050069  RH  078%=      5-min Rain = 0
KPG1 171223Z 18010KT 10/07 A3006 RMK A01 T01040069  RH  079%=      5-min Rain = 0
KPG1 171224Z 18010KT 10/07 A3006 RMK A01 T01040069  RH  079%=      5-min Rain = 0
KPG1 171225Z 17010KT 10/07 A3006 RMK A01 T01040069  RH  079%=      5-min Rain = 0
KPG1 171226Z 18010KT 10/07 A3006 RMK A01 T01030068  RH  079%=      5-min Rain = 0
KPG1 171227Z 17010KT 10/07 A3006 RMK A01 T01010067  RH  079%=      5-min Rain = 0
KPG1 171228Z 18009KT 10/07 A3007 RMK A01 T01000067  RH  080%=      5-min Rain = 0
KPG1 171229Z 17009KT 10/07 A3007 RMK A01 T00990067  RH  080%=      5-min Rain = 0
KPG1 171230Z 18007KT 10/07 A3007 RMK A01 T00990067  RH  081%=      5-min Rain = 0
KPG1 171231Z 19006KT 10/07 A3007 RMK A01 T00990067  RH  081%=      5-min Rain = 0
KPG1 171232Z 19006KT 10/07 A3007 RMK A01 T00980067  RH  081%=      5-min Rain = 0
KPG1 171233Z 17009KT 10/07 A3007 RMK A01 T00970067  RH  081%=      5-min Rain = 0
KPG1 171234Z 18009KT 10/07 A3007 RMK A01 T00960067  RH  082%=      5-min Rain = 0
KPG1 171235Z 18009KT 10/07 A3007 RMK A01 T00960068  RH  082%=      5-min Rain = 0
KPG1 171236Z 18008KT 10/07 A3007 RMK A01 T00970068  RH  082%=      5-min Rain = 0
KPG1 171237Z 18008KT 10/07 A3007 RMK A01 T00970068  RH  082%=      5-min Rain = 0
KPG1 171238Z 18007KT 10/07 A3007 RMK A01 T00980068  RH  082%=      5-min Rain = 0
KPG1 171239Z 18005KT 10/07 A3007 RMK A01 T00980068  RH  081%=      5-min Rain = 0
KPG1 171240Z 20004KT 10/07 A3007 RMK A01 T00980067  RH  081%=      5-min Rain = 0
KPG1 171241Z 21003KT 10/07 A3007 RMK A01 T00970067  RH  081%=      5-min Rain = 0
KPG1 171242Z 20003KT 10/07 A3007 RMK A01 T00960065  RH  081%=      5-min Rain = 0
KPG1 171243Z 21003KT 09/07 A3007 RMK A01 T00940065  RH  082%=      5-min Rain = 0
KPG1 171244Z 21002KT 09/07 A3007 RMK A01 T00930065  RH  083%=      5-min Rain = 0
KPG1 171245Z 19002KT 09/07 A3007 RMK A01 T00930066  RH  083%=      5-min Rain = 0
KPG1 171246Z 20003KT 09/07 A3007 RMK A01 T00930066  RH  083%=      5-min Rain = 0
KPG1 171247Z 21003KT 09/07 A3008 RMK A01 T00940067  RH  083%=      5-min Rain = 0
KPG1 171248Z 21003KT 10/07 A3008 RMK A01 T00960068  RH  083%=      5-min Rain = 0
KPG1 171249Z 21003KT 10/07 A3008 RMK A01 T00970068  RH  082%=      5-min Rain = 0
KPG1 171250Z 22004KT 10/07 A3008 RMK A01 T00970067  RH  082%=      5-min Rain = 0
KPG1 171251Z 22003KT 10/07 A3008 RMK A01 T00970067  RH  082%=      5-min Rain = 0
KPG1 171252Z 23004KT 10/07 A3008 RMK A01 T00970068  RH  082%=      5-min Rain = 0
KPG1 171253Z 23006KT 10/07 A3008 RMK A01 T00980068  RH  081%=      5-min Rain = 0
KPG1 171254Z 24005KT 10/07 A3008 RMK A01 T00990068  RH  081%=      5-min Rain = 0
KPG1 171255Z 24005KT 10/07 A3008 RMK A01 T00990067  RH  081%=      5-min Rain = 0
KPG1 171256Z 25006KT 10/07 A3008 RMK A01 T00990068  RH  081%=      5-min Rain = 0
KPG1 171257Z 26005KT 10/07 A3008 RMK A01 T00990068  RH  081%=      5-min Rain = 0
KPG1 171258Z 26004KT 10/07 A3008 RMK A01 T01000067  RH  080%=      5-min Rain = 0
KPG1 171259Z 26004KT 10/07 A3008 RMK A01 T00990067  RH  080%=      5-min Rain = 0
KPG1 171300Z 26004KT 10/07 A3008 RMK A01 T00980066  RH  081%=      5-min Rain = 0
KPG1 171301Z 25005KT 10/07 A3008 RMK A01 T00960066  RH  082%=      5-min Rain = 0
KPG1 171302Z 24005KT 10/07 A3008 RMK A01 T00960066  RH  082%=      5-min Rain = 0
KPG1 171303Z 25005KT 10/07 A3008 RMK A01 T00960066  RH  082%=      5-min Rain = 0
KPG1 171304Z 24006KT 10/07 A3008 RMK A01 T00950067  RH  082%=      5-min Rain = 0
KPG1 171305Z 24006KT 10/07 A3008 RMK A01 T00960067  RH  083%=      5-min Rain = 0
KPG1 171306Z 24004KT 10/07 A3008 RMK A01 T00970067  RH  082%=      5-min Rain = 0
KPG1 171307Z 23004KT 10/07 A3008 RMK A01 T00970067  RH  082%=      5-min Rain = 0
KPG1 171308Z 21004KT 10/07 A3008 RMK A01 T00960067  RH  082%=      5-min Rain = 0
KPG1 171309Z 20004KT 10/07 A3008 RMK A01 T00960067  RH  082%=      5-min Rain = 0
KPG1 171310Z 20005KT 10/07 A3008 RMK A01 T00980068  RH  082%=      5-min Rain = 0
KPG1 171311Z 20005KT 10/07 A3008 RMK A01 T00990069  RH  081%=      5-min Rain = 0
KPG1 171312Z 18005KT 10/07 A3008 RMK A01 T01010069  RH  080%=      5-min Rain = 0
KPG1 171313Z 18006KT 10/07 A3008 RMK A01 T01020069  RH  080%=      5-min Rain = 0
KPG1 171314Z 19005KT 10/07 A3008 RMK A01 T01020069  RH  080%=      5-min Rain = 0
KPG1 171315Z 18006KT 10/07 A3008 RMK A01 T01010068  RH  080%=      5-min Rain = 0
KPG1 171316Z 18006KT 10/07 A3008 RMK A01 T01010069  RH  080%=      5-min Rain = 0
KPG1 171317Z 18006KT 10/07 A3008 RMK A01 T01010069  RH  080%=      5-min Rain = 0
KPG1 171318Z 19006KT 10/07 A3008 RMK A01 T01010069  RH  080%=      5-min Rain = 0
KPG1 171319Z 19005KT 10/07 A3008 RMK A01 T01030070  RH  079%=      5-min Rain = 0
KPG1 171320Z 19005KT 10/07 A3009 RMK A01 T01030067  RH  079%=      5-min Rain = 0
KPG1 171321Z 18007KT 10/07 A3008 RMK A01 T00990066  RH  080%=      5-min Rain = 0
KPG1 171322Z 18005KT 10/07 A3008 RMK A01 T00970067  RH  081%=      5-min Rain = 0
KPG1 171323Z 18005KT 10/07 A3008 RMK A01 T00960066  RH  082%=      5-min Rain = 0
KPG1 171324Z 20005KT 09/07 A3008 RMK A01 T00930065  RH  082%=      5-min Rain = 0
KPG1 171325Z 19005KT 09/06 A3008 RMK A01 T00900063  RH  083%=      5-min Rain = 0
KPG1 171326Z 20005KT 09/06 A3008 RMK A01 T00870062  RH  084%=      5-min Rain = 0
KPG1 171327Z 21005KT 09/06 A3008 RMK A01 T00850062  RH  086%=      5-min Rain = 0
KPG1 171328Z 20005KT 08/06 A3008 RMK A01 T00840063  RH  087%=      5-min Rain = 0
KPG1 171329Z 21004KT 08/06 A3008 RMK A01 T00830063  RH  087%=      5-min Rain = 0
KPG1 171330Z 19005KT 08/06 A3008 RMK A01 T00820063  RH  088%=      5-min Rain = 0
KPG1 171331Z 19006KT 08/07 A3008 RMK A01 T00830065  RH  089%=      5-min Rain = 0
KPG1 171332Z 22006KT 09/07 A3008 RMK A01 T00870068  RH  088%=      5-min Rain = 0
KPG1 171333Z 22006KT 09/07 A3008 RMK A01 T00880066  RH  086%=      5-min Rain = 0
KPG1 171334Z 20007KT 09/07 A3008 RMK A01 T00880065  RH  086%=      5-min Rain = 0
KPG1 171335Z 19007KT 09/07 A3008 RMK A01 T00870066  RH  086%=      5-min Rain = 0
KPG1 171336Z 20005KT 09/07 A3008 RMK A01 T00870065  RH  086%=      5-min Rain = 0
KPG1 171337Z 21005KT 09/06 A3008 RMK A01 T00860064  RH  086%=      5-min Rain = 0
KPG1 171338Z 20006KT 09/06 A3008 RMK A01 T00850064  RH  087%=      5-min Rain = 0
KPG1 171339Z 20005KT 08/06 A3009 RMK A01 T00840064  RH  087%=      5-min Rain = 0
KPG1 171340Z 22004KT 08/06 A3009 RMK A01 T00840064  RH  088%=      5-min Rain = 0
KPG1 171341Z 23004KT 08/07 A3009 RMK A01 T00840065  RH  088%=      5-min Rain = 0
KPG1 171342Z 23005KT 08/07 A3009 RMK A01 T00840065  RH  088%=      5-min Rain = 0
KPG1 171343Z 23004KT 08/07 A3009 RMK A01 T00840066  RH  088%=      5-min Rain = 0
KPG1 171344Z 24004KT 08/07 A3009 RMK A01 T00840066  RH  088%=      5-min Rain = 0
KPG1 171345Z 23004KT 09/07 A3009 RMK A01 T00850067  RH  088%=      5-min Rain = 0
KPG1 171346Z 21004KT 09/07 A3009 RMK A01 T00860068  RH  088%=      5-min Rain = 0
KPG1 171347Z 23004KT 09/07 A3009 RMK A01 T00890068  RH  087%=      5-min Rain = 0
KPG1 171348Z 23004KT 09/07 A3009 RMK A01 T00900068  RH  087%=      5-min Rain = 0
KPG1 171349Z 23004KT 09/07 A3009 RMK A01 T00900068  RH  086%=      5-min Rain = 0
KPG1 171350Z 24004KT 09/07 A3009 RMK A01 T00910068  RH  086%=      5-min Rain = 0
KPG1 171351Z 23004KT 09/07 A3009 RMK A01 T00910068  RH  086%=      5-min Rain = 0
KPG1 171352Z 23004KT 09/07 A3009 RMK A01 T00920069  RH  086%=      5-min Rain = 0
KPG1 171353Z 23004KT 09/07 A3009 RMK A01 T00940069  RH  085%=      5-min Rain = 0
KPG1 171354Z 22005KT 10/07 A3009 RMK A01 T00960069  RH  084%=      5-min Rain = 0
KPG1 171355Z 22005KT 10/07 A3009 RMK A01 T00960068  RH  083%=      5-min Rain = 0
KPG1 171356Z 22005KT 10/07 A3009 RMK A01 T00960068  RH  083%=      5-min Rain = 0
KPG1 171357Z 22005KT 10/07 A3009 RMK A01 T00960068  RH  083%=      5-min Rain = 0
KPG1 171358Z 22005KT 10/07 A3009 RMK A01 T00960068  RH  083%=      5-min Rain = 0
KPG1 171359Z 22005KT 10/07 A3009 RMK A01 T00960068  RH  082%=      5-min Rain = 0
KPG1 171400Z 22005KT 10/07 A3009 RMK A01 T00960068  RH  083%=      5-min Rain = 0
KPG1 171401Z 21005KT 10/07 A3009 RMK A01 T00950068  RH  083%=      5-min Rain = 0
KPG1 171402Z 22004KT 10/07 A3009 RMK A01 T00950068  RH  083%=      5-min Rain = 0
KPG1 171403Z 22004KT 10/07 A3009 RMK A01 T00960068  RH  083%=      5-min Rain = 0
KPG1 171404Z 21004KT 10/07 A3009 RMK A01 T00960067  RH  082%=      5-min Rain = 0
KPG1 171405Z 21004KT 10/07 A3009 RMK A01 T00960067  RH  082%=      5-min Rain = 0
KPG1 171406Z 21004KT 10/07 A3009 RMK A01 T00960067  RH  082%=      5-min Rain = 0
KPG1 171407Z 20003KT 10/07 A3009 RMK A01 T00960067  RH  082%=      5-min Rain = 0
KPG1 171408Z 20004KT 10/07 A3009 RMK A01 T00950067  RH  082%=      5-min Rain = 0
KPG1 171409Z 19004KT 10/07 A3009 RMK A01 T00950067  RH  083%=      5-min Rain = 0
KPG1 171410Z 19004KT 09/07 A3009 RMK A01 T00940066  RH  083%=      5-min Rain = 0
KPG1 171411Z 19004KT 09/07 A301 RMK A01 T00930066  RH  083%=      5-min Rain = 0
KPG1 171412Z 20004KT 09/07 A301 RMK A01 T00930066  RH  083%=      5-min Rain = 0
KPG1 171413Z 19005KT 09/07 A301 RMK A01 T00930066  RH  083%=      5-min Rain = 0
KPG1 171414Z 19005KT 09/07 A301 RMK A01 T00930066  RH  083%=      5-min Rain = 0
KPG1 171415Z 20004KT 09/07 A301 RMK A01 T00930066  RH  083%=      5-min Rain = 0
KPG1 171416Z 20004KT 09/07 A301 RMK A01 T00940066  RH  083%=      5-min Rain = 0
KPG1 171417Z 21004KT 10/07 A301 RMK A01 T00950066  RH  082%=      5-min Rain = 0
KPG1 171418Z 21004KT 10/07 A301 RMK A01 T00950065  RH  082%=      5-min Rain = 0
KPG1 171419Z 22004KT 09/07 A301 RMK A01 T00940065  RH  082%=      5-min Rain = 0
KPG1 171420Z 21004KT 09/07 A301 RMK A01 T00940065  RH  082%=      5-min Rain = 0
KPG1 171421Z 23003KT 09/07 A301 RMK A01 T00940065  RH  082%=      5-min Rain = 0
KPG1 171422Z 24003KT 09/07 A301 RMK A01 T00940065  RH  082%=      5-min Rain = 0
KPG1 171423Z 24003KT 10/07 A301 RMK A01 T00950066  RH  082%=      5-min Rain = 0
KPG1 171424Z 24003KT 10/07 A301 RMK A01 T00950065  RH  082%=      5-min Rain = 0
KPG1 171425Z 24003KT 10/07 A301 RMK A01 T00960066  RH  081%=      5-min Rain = 0
KPG1 171426Z 24003KT 10/07 A301 RMK A01 T00960065  RH  081%=      5-min Rain = 0
KPG1 171427Z 24003KT 10/07 A301 RMK A01 T00960065  RH  081%=      5-min Rain = 0
KPG1 171428Z 25004KT 10/07 A301 RMK A01 T00960065  RH  081%=      5-min Rain = 0
KPG1 171429Z 25004KT 10/07 A301 RMK A01 T00960065  RH  081%=      5-min Rain = 0
KPG1 171430Z 25003KT 10/07 A301 RMK A01 T00960065  RH  081%=      5-min Rain = 0
KPG1 171431Z 25004KT 10/07 A301 RMK A01 T00960065  RH  081%=      5-min Rain = 0
KPG1 171432Z 25004KT 10/07 A301 RMK A01 T00960065  RH  081%=      5-min Rain = 0
KPG1 171433Z 25004KT 10/07 A301 RMK A01 T00970065  RH  081%=      5-min Rain = 0
KPG1 171434Z 25004KT 10/07 A3011 RMK A01 T00970065  RH  080%=      5-min Rain = 0
KPG1 171435Z 25004KT 10/07 A3011 RMK A01 T00970065  RH  080%=      5-min Rain = 0
KPG1 171436Z 25004KT 10/07 A3011 RMK A01 T00970065  RH  080%=      5-min Rain = 0
KPG1 171437Z 24003KT 10/07 A3011 RMK A01 T00980065  RH  080%=      5-min Rain = 0
KPG1 171438Z 23002KT 10/07 A3011 RMK A01 T00980065  RH  080%=      5-min Rain = 0
KPG1 171439Z 23003KT 10/07 A3011 RMK A01 T00980065  RH  080%=      5-min Rain = 0
KPG1 171440Z 25003KT 10/07 A3011 RMK A01 T01000066  RH  079%=      5-min Rain = 0
KPG1 171441Z 25003KT 10/07 A3011 RMK A01 T01010066  RH  079%=      5-min Rain = 0
KPG1 171442Z 25004KT 10/07 A3011 RMK A01 T01020066  RH  078%=      5-min Rain = 0
KPG1 171443Z 26004KT 10/07 A3011 RMK A01 T01030066  RH  078%=      5-min Rain = 0
KPG1 171444Z 26004KT 10/07 A3011 RMK A01 T01040067  RH  078%=      5-min Rain = 0
KPG1 171445Z 26005KT 11/07 A3011 RMK A01 T01050068  RH  078%=      5-min Rain = 0
KPG1 171446Z 25005KT 11/07 A3011 RMK A01 T01060068  RH  077%=      5-min Rain = 0
KPG1 171447Z 24005KT 11/07 A3011 RMK A01 T01090069  RH  077%=      5-min Rain = 0
KPG1 171448Z 24004KT 11/07 A3011 RMK A01 T01110070  RH  076%=      5-min Rain = 0
KPG1 171449Z 26004KT 11/07 A3011 RMK A01 T01120071  RH  075%=      5-min Rain = 0
KPG1 171450Z 26004KT 11/07 A3011 RMK A01 T01140070  RH  075%=      5-min Rain = 0
KPG1 171451Z 25004KT 12/07 A3011 RMK A01 T01160070  RH  074%=      5-min Rain = 0
KPG1 171452Z 24004KT 12/07 A3011 RMK A01 T01170070  RH  073%=      5-min Rain = 0
KPG1 171453Z 23004KT 12/07 A3011 RMK A01 T01180071  RH  072%=      5-min Rain = 0
KPG1 171454Z 24004KT 12/07 A3011 RMK A01 T01200071  RH  072%=      5-min Rain = 0
KPG1 171455Z 24003KT 12/07 A3012 RMK A01 T01200071  RH  072%=      5-min Rain = 0
KPG1 171456Z 24003KT 12/07 A3012 RMK A01 T01210071  RH  071%=      5-min Rain = 0
KPG1 171457Z 23003KT 12/07 A3012 RMK A01 T01230073  RH  072%=      5-min Rain = 0
KPG1 171458Z 23002KT 12/07 A3012 RMK A01 T01240073  RH  071%=      5-min Rain = 0
KPG1 171459Z 22003KT 13/07 A3012 RMK A01 T01250073  RH  070%=      5-min Rain = 0
KPG1 171500Z 19003KT 13/07 A3012 RMK A01 T01260072  RH  070%=      5-min Rain = 0
KPG1 171501Z 20002KT 13/07 A3013 RMK A01 T01270073  RH  069%=      5-min Rain = 0
KPG1 171502Z 19001KT 13/07 A3013 RMK A01 T01290074  RH  069%=      5-min Rain = 0
KPG1 171503Z 05001KT 13/07 A3013 RMK A01 T01300074  RH  069%=      5-min Rain = 0
KPG1 171504Z 07002KT 13/08 A3013 RMK A01 T01320075  RH  068%=      5-min Rain = 0
KPG1 171505Z 13002KT 13/07 A3013 RMK A01 T01320074  RH  068%=      5-min Rain = 0
KPG1 171506Z 16003KT 13/07 A3013 RMK A01 T01330074  RH  067%=      5-min Rain = 0
KPG1 171507Z 17002KT 13/07 A3013 RMK A01 T01340074  RH  067%=      5-min Rain = 0
KPG1 171508Z 16003KT 14/07 A3013 RMK A01 T01350074  RH  067%=      5-min Rain = 0
KPG1 171509Z 10001KT 14/08 A3013 RMK A01 T01360075  RH  066%=      5-min Rain = 0
KPG1 171510Z 13001KT 14/07 A3013 RMK A01 T01370074  RH  065%=      5-min Rain = 0
KPG1 171511Z 19002KT 14/07 A3013 RMK A01 T01380073  RH  065%=      5-min Rain = 0
KPG1 171512Z 21002KT 14/07 A3013 RMK A01 T01380074  RH  065%=      5-min Rain = 0
KPG1 171513Z 20002KT 14/07 A3013 RMK A01 T01380073  RH  065%=      5-min Rain = 0
KPG1 171514Z 21002KT 14/07 A3013 RMK A01 T01380074  RH  065%=      5-min Rain = 0
KPG1 171515Z 19002KT 14/07 A3013 RMK A01 T01370073  RH  065%=      5-min Rain = 0
KPG1 171516Z 21001KT 14/07 A3013 RMK A01 T01380073  RH  065%=      5-min Rain = 0
KPG1 171517Z 23002KT 14/07 A3013 RMK A01 T01380073  RH  065%=      5-min Rain = 0
KPG1 171518Z 27000KT 14/07 A3013 RMK A01 T01380073  RH  065%=      5-min Rain = 0
KPG1 171519Z 00000KT 14/07 A3013 RMK A01 T01380071  RH  064%=      5-min Rain = 0
KPG1 171520Z 00000KT 14/07 A3013 RMK A01 T01380071  RH  064%=      5-min Rain = 0
KPG1 171521Z 21002KT 14/07 A3013 RMK A01 T01380071  RH  064%=      5-min Rain = 0
KPG1 171522Z 20003KT 14/07 A3013 RMK A01 T01380071  RH  064%=      5-min Rain = 0
KPG1 171523Z 21002KT 14/07 A3014 RMK A01 T01380072  RH  064%=      5-min Rain = 0
KPG1 171524Z 18003KT 14/07 A3014 RMK A01 T01380072  RH  064%=      5-min Rain = 0
KPG1 171525Z 13003KT 14/07 A3014 RMK A01 T01390073  RH  064%=      5-min Rain = 0
KPG1 171526Z 12005KT 14/07 A3013 RMK A01 T01400073  RH  064%=      5-min Rain = 0
KPG1 171527Z 13001KT 14/07 A3014 RMK A01 T01410074  RH  064%=      5-min Rain = 0
KPG1 171528Z 22003KT 14/07 A3014 RMK A01 T01420074  RH  064%=      5-min Rain = 0
KPG1 171529Z 21004KT 14/07 A3014 RMK A01 T01420073  RH  063%=      5-min Rain = 0
KPG1 171530Z 21004KT 14/07 A3013 RMK A01 T01420073  RH  063%=      5-min Rain = 0
KPG1 171531Z 24002KT 14/07 A3014 RMK A01 T01420073  RH  063%=      5-min Rain = 0
KPG1 171532Z 23004KT 14/07 A3014 RMK A01 T01430072  RH  062%=      5-min Rain = 0
KPG1 171533Z 25005KT 15/07 A3014 RMK A01 T01450072  RH  061%=      5-min Rain = 0
KPG1 171534Z 25005KT 15/08 A3014 RMK A01 T01460075  RH  062%=      5-min Rain = 0
KPG1 171535Z 26004KT 15/07 A3014 RMK A01 T01460074  RH  062%=      5-min Rain = 0
KPG1 171536Z 24004KT 15/08 A3014 RMK A01 T01470075  RH  062%=      5-min Rain = 0
KPG1 171537Z 23004KT 15/07 A3014 RMK A01 T01470072  RH  061%=      5-min Rain = 0
KPG1 171538Z 12001KT 15/08 A3014 RMK A01 T01480075  RH  061%=      5-min Rain = 0
KPG1 171539Z 27001KT 15/07 A3014 RMK A01 T01510071  RH  059%=      5-min Rain = 0
KPG1 171540Z 28006KT 15/04 A3014 RMK A01 T01540043  RH  048%=      5-min Rain = 0
KPG1 171541Z 26003KT 16/03 A3014 RMK A01 T01590032  RH  042%=      5-min Rain = 0
KPG1 171542Z 24003KT 16/04 A3014 RMK A01 T01640037  RH  043%=      5-min Rain = 0
KPG1 171543Z 27002KT 17/04 A3014 RMK A01 T01660040  RH  043%=      5-min Rain = 0
KPG1 171544Z 33004G12KT 17/04 A3014 RMK A01 T01680036  RH  042%=      5-min Rain = 0
KPG1 171545Z 34012G19KT 17/02 A3014 RMK A01 T01690017  RH  036%=      5-min Rain = 0
KPG1 171546Z 33009G17KT 17/01 A3014 RMK A01 T01700006  RH  033%=      5-min Rain = 0
KPG1 171547Z 33006KT 17/00 A3014 RMK A01 T01710004  RH  032%=      5-min Rain = 0
KPG1 171548Z 35007KT 17/01 A3014 RMK A01 T01720005  RH  032%=      5-min Rain = 0
KPG1 171549Z 35008KT 17/00 A3014 RMK A01 T01730004  RH  032%=      5-min Rain = 0
KPG1 171550Z 35012KT 18/00 A3014 RMK A01 T01750004  RH  031%=      5-min Rain = 0
KPG1 171551Z 34012KT 18/00 A3014 RMK A01 T01750002  RH  031%=      5-min Rain = 0
KPG1 171552Z 36017KT 18/00 A3014 RMK A01 T01750001  RH  031%=      5-min Rain = 0
KPG1 171553Z 34013KT 17/M00 A3014 RMK A01 T01741001  RH  031%=      5-min Rain = 0
KPG1 171554Z 00011G16KT 17/00 A3014 RMK A01 T017400-0  RH  031%=      5-min Rain = 0
KPG1 171555Z 35016KT 18/M00 A3014 RMK A01 T01761001  RH  030%=      5-min Rain = 0
KPG1 171556Z 35017KT 18/M00 A3014 RMK A01 T01751002  RH  030%=      5-min Rain = 0
KPG1 171557Z 34017G22KT 17/M00 A3014 RMK A01 T01741004  RH  030%=      5-min Rain = 0
KPG1 171558Z 35013KT 17/M00 A3014 RMK A01 T01731004  RH  030%=      5-min Rain = 0
KPG1 171559Z 34016KT 17/M00 A3014 RMK A01 T01721003  RH  030%=      5-min Rain = 0
KPG1 171600Z 35019KT 17/M00 A3014 RMK A01 T01721004  RH  030%=      5-min Rain = 0
KPG1 171601Z 34017KT 17/M00 A3014 RMK A01 T01731003  RH  030%=      5-min Rain = 0
KPG1 171602Z 34016KT 17/M00 A3014 RMK A01 T01721004  RH  030%=      5-min Rain = 0
KPG1 171603Z 35016G22KT 17/M00 A3014 RMK A01 T01731003  RH  030%=      5-min Rain = 0
KPG1 171604Z 34018KT 17/M00 A3014 RMK A01 T01731003  RH  030%=      5-min Rain = 0
KPG1 171605Z 35019KT 17/M00 A3014 RMK A01 T01721003  RH  030%=      5-min Rain = 0
KPG1 171606Z 34017KT 17/M00 A3014 RMK A01 T01721003  RH  030%=      5-min Rain = 0
KPG1 171607Z 35017KT 17/M00 A3014 RMK A01 T01721002  RH  031%=      5-min Rain = 0
KPG1 171608Z 36019KT 17/M00 A3014 RMK A01 T01711003  RH  031%=      5-min Rain = 0
KPG1 171609Z 36019KT 17/M00 A3014 RMK A01 T01701003  RH  031%=      5-min Rain = 0
KPG1 171610Z 01013KT 17/M00 A3014 RMK A01 T01691002  RH  031%=      5-min Rain = 0
KPG1 171611Z 01014G20KT 17/M00 A3014 RMK A01 T01711001  RH  031%=      5-min Rain = 0
KPG1 171612Z 36017KT 17/M00 A3014 RMK A01 T01711001  RH  031%=      5-min Rain = 0
KPG1 171613Z 01018KT 17/M00 A3014 RMK A01 T01701002  RH  031%=      5-min Rain = 0
KPG1 171614Z 00017G22KT 17/M00 A3014 RMK A01 T01691003  RH  031%=      5-min Rain = 0
KPG1 171615Z 36019KT 17/M00 A3014 RMK A01 T01681003  RH  031%=      5-min Rain = 0
KPG1 171616Z 01015KT 17/M00 A3014 RMK A01 T01681002  RH  032%=      5-min Rain = 0
KPG1 171617Z 00013G18KT 17/M00 A3015 RMK A01 T01681002  RH  032%=      5-min Rain = 0
KPG1 171618Z 35018KT 17/M00 A3015 RMK A01 T01691001  RH  031%=      5-min Rain = 0
KPG1 171619Z 35014G21KT 17/M00 A3015 RMK A01 T01691002  RH  031%=      5-min Rain = 0
KPG1 171620Z 35015KT 17/00 A3015 RMK A01 T017000-0  RH  031%=      5-min Rain = 0
KPG1 171621Z 35015KT 17/M00 A3015 RMK A01 T01711001  RH  031%=      5-min Rain = 0
KPG1 171622Z 36013G18KT 17/M00 A3015 RMK A01 T01701001  RH  031%=      5-min Rain = 0
KPG1 171623Z 00013G18KT 17/M00 A3015 RMK A01 T01711002  RH  031%=      5-min Rain = 0
KPG1 171624Z 01015KT 17/M00 A3015 RMK A01 T01721001  RH  031%=      5-min Rain = 0
KPG1 171625Z 01015KT 17/M00 A3015 RMK A01 T01721002  RH  031%=      5-min Rain = 0
KPG1 171626Z 01014KT 17/M00 A3015 RMK A01 T01721002  RH  031%=      5-min Rain = 0
KPG1 171627Z 00013KT 17/M00 A3015 RMK A01 T01731002  RH  031%=      5-min Rain = 0
KPG1 171628Z 36015KT 17/00 A3015 RMK A01 T017400-0  RH  031%=      5-min Rain = 0
KPG1 171629Z 35013G19KT 18/M00 A3015 RMK A01 T01751001  RH  030%=      5-min Rain = 0
KPG1 171630Z 35016KT 18/M00 A3015 RMK A01 T01751001  RH  030%=      5-min Rain = 0
KPG1 171631Z 35017KT 18/M00 A3015 RMK A01 T01751003  RH  030%=      5-min Rain = 0
KPG1 171632Z 34018KT 17/M00 A3015 RMK A01 T01741004  RH  030%=      5-min Rain = 0
KPG1 171633Z 35015KT 17/M01 A3015 RMK A01 T01711005  RH  030%=      5-min Rain = 0
KPG1 171634Z 01012G17KT 17/M00 A3015 RMK A01 T01721003  RH  031%=      5-min Rain = 0
KPG1 171635Z 00017KT 17/M00 A3015 RMK A01 T01741002  RH  030%=      5-min Rain = 0
KPG1 171636Z 36017KT 17/M00 A3015 RMK A01 T01741004  RH  030%=      5-min Rain = 0
KPG1 171637Z 01016KT 17/M00 A3015 RMK A01 T01741003  RH  030%=      5-min Rain = 0
KPG1 171638Z 01018KT 17/M00 A3015 RMK A01 T01741004  RH  030%=      5-min Rain = 0
KPG1 171639Z 01019G25KT 17/M00 A3015 RMK A01 T01731004  RH  030%=      5-min Rain = 0
KPG1 171640Z 01018G23KT 17/M01 A3015 RMK A01 T01711005  RH  030%=      5-min Rain = 0
KPG1 171641Z 36019KT 17/M01 A3015 RMK A01 T01711005  RH  030%=      5-min Rain = 0
KPG1 171642Z 35018KT 17/M00 A3015 RMK A01 T01721004  RH  030%=      5-min Rain = 0
KPG1 171643Z 36019KT 17/M00 A3015 RMK A01 T01731004  RH  030%=      5-min Rain = 0
KPG1 171644Z 36019G24KT 17/M01 A3015 RMK A01 T01721005  RH  030%=      5-min Rain = 0
KPG1 171645Z 35018KT 17/M01 A3015 RMK A01 T01721005  RH  030%=      5-min Rain = 0
KPG1 171646Z 36016G21KT 17/M00 A3015 RMK A01 T01731003  RH  030%=      5-min Rain = 0
KPG1 171647Z 36017KT 18/M00 A3015 RMK A01 T01751003  RH  030%=      5-min Rain = 0
KPG1 171648Z 00015G20KT 18/M00 A3015 RMK A01 T01751003  RH  030%=      5-min Rain = 0
KPG1 171649Z 00015G21KT 18/M00 A3015 RMK A01 T01761002  RH  030%=      5-min Rain = 0
KPG1 171650Z 01017G22KT 18/M00 A3015 RMK A01 T01771002  RH  030%=      5-min Rain = 0
KPG1 171651Z 36018KT 18/M00 A3015 RMK A01 T01771003  RH  030%=      5-min Rain = 0
KPG1 171652Z 01014KT 18/M00 A3015 RMK A01 T01771003  RH  030%=      5-min Rain = 0
KPG1 171653Z 00015KT 18/M00 A3015 RMK A01 T01761003  RH  030%=      5-min Rain = 0
KPG1 171654Z 01014KT 18/M00 A3015 RMK A01 T01761003  RH  030%=      5-min Rain = 0
KPG1 171655Z 01017KT 18/M00 A3015 RMK A01 T01771003  RH  030%=      5-min Rain = 0
KPG1 171656Z 00017KT 18/M00 A3015 RMK A01 T01771003  RH  030%=      5-min Rain = 0
KPG1 171657Z 35018KT 18/M00 A3015 RMK A01 T01761003  RH  030%=      5-min Rain = 0
KPG1 171658Z 00016KT 18/M00 A3015 RMK A01 T01761003  RH  030%=      5-min Rain = 0
KPG1 171659Z 01016KT 18/M00 A3015 RMK A01 T01761002  RH  030%=      5-min Rain = 0
KPG1 171700Z 01019KT 18/M00 A3015 RMK A01 T01771003  RH  029%=      5-min Rain = 0
KPG1 171701Z 00015KT 18/M00 A3015 RMK A01 T01771003  RH  030%=      5-min Rain = 0
KPG1 171702Z 01015KT 18/M00 A3015 RMK A01 T01761003  RH  030%=      5-min Rain = 0
KPG1 171703Z 01013G18KT 18/M00 A3015 RMK A01 T01771002  RH  030%=      5-min Rain = 0
KPG1 171704Z 01014KT 18/M00 A3015 RMK A01 T01781002  RH  030%=      5-min Rain = 0
KPG1 171705Z 03016KT 18/M00 A3015 RMK A01 T01771002  RH  030%=      5-min Rain = 0
KPG1 171706Z 02015KT 18/M00 A3015 RMK A01 T01781001  RH  030%=      5-min Rain = 0
KPG1 171707Z 02013G18KT 18/00 A3015 RMK A01 T01800000  RH  030%=      5-min Rain = 0
KPG1 171708Z 00016KT 18/00 A3015 RMK A01 T01810000  RH  029%=      5-min Rain = 0
KPG1 171709Z 36014KT 18/M00 A3015 RMK A01 T01801003  RH  029%=      5-min Rain = 0
KPG1 171710Z 01011KT 18/M00 A3015 RMK A01 T01791002  RH  029%=      5-min Rain = 0
KPG1 171711Z 36013KT 18/M00 A3015 RMK A01 T01801002  RH  029%=      5-min Rain = 0
KPG1 171712Z 00014KT 18/M00 A3015 RMK A01 T01801002  RH  029%=      5-min Rain = 0
KPG1 171713Z 36015KT 18/M00 A3015 RMK A01 T01791002  RH  029%=      5-min Rain = 0
KPG1 171714Z 35012KT 18/M00 A3015 RMK A01 T01781002  RH  029%=      5-min Rain = 0
KPG1 171715Z 00010KT 18/M00 A3015 RMK A01 T01781001  RH  030%=      5-min Rain = 0
KPG1 171716Z 02013KT 18/00 A3015 RMK A01 T01810000  RH  030%=      5-min Rain = 0
KPG1 171717Z 03011KT 18/00 A3015 RMK A01 T01810000  RH  029%=      5-min Rain = 0
KPG1 171718Z 02011KT 18/00 A3015 RMK A01 T01830000  RH  029%=      5-min Rain = 0
KPG1 171719Z 36008KT 18/00 A3015 RMK A01 T018200-0  RH  029%=      5-min Rain = 0
KPG1 171720Z 02011KT 18/00 A3015 RMK A01 T018300-0  RH  029%=      5-min Rain = 0
KPG1 171721Z 02011KT 19/00 A3015 RMK A01 T01850000  RH  029%=      5-min Rain = 0
KPG1 171722Z 01014KT 19/00 A3015 RMK A01 T018600-0  RH  028%=      5-min Rain = 0
KPG1 171723Z 01018KT 19/M00 A3015 RMK A01 T01871002  RH  028%=      5-min Rain = 0
KPG1 171724Z 36014G19KT 19/M00 A3015 RMK A01 T01851004  RH  028%=      5-min Rain = 0
KPG1 171725Z 00012KT 18/M00 A3015 RMK A01 T01841004  RH  028%=      5-min Rain = 0
KPG1 171726Z 36013KT 18/M00 A3015 RMK A01 T01831003  RH  028%=      5-min Rain = 0
KPG1 171727Z 36015KT 19/M00 A3015 RMK A01 T01851003  RH  028%=      5-min Rain = 0
KPG1 171728Z 35016KT 19/M00 A3015 RMK A01 T01851003  RH  028%=      5-min Rain = 0
KPG1 171729Z 01012G17KT 19/M00 A3015 RMK A01 T01851004  RH  028%=      5-min Rain = 0
KPG1 171730Z 36015KT 19/M00 A3015 RMK A01 T01861003  RH  028%=      5-min Rain = 0
KPG1 171731Z 00016KT 19/M00 A3015 RMK A01 T01861004  RH  028%=      5-min Rain = 0
KPG1 171732Z 01013KT 19/M00 A3015 RMK A01 T01851004  RH  028%=      5-min Rain = 0
KPG1 171733Z 00013KT 19/M00 A3015 RMK A01 T01851004  RH  028%=      5-min Rain = 0
KPG1 171734Z 35015KT 19/M00 A3015 RMK A01 T01851003  RH  028%=      5-min Rain = 0
KPG1 171735Z 35014KT 18/M00 A3015 RMK A01 T01841004  RH  028%=      5-min Rain = 0
KPG1 171736Z 00015KT 19/M00 A3015 RMK A01 T01851003  RH  028%=      5-min Rain = 0
KPG1 171737Z 01012KT 19/M00 A3015 RMK A01 T01851004  RH  028%=      5-min Rain = 0
KPG1 171738Z 02012KT 18/M00 A3015 RMK A01 T01841004  RH  028%=      5-min Rain = 0
KPG1 171739Z 36015KT 18/M00 A3015 RMK A01 T01841004  RH  028%=      5-min Rain = 0
KPG1 171740Z 35016KT 18/M00 A3015 RMK A01 T01841004  RH  028%=      5-min Rain = 0
KPG1 171741Z 34017KT 19/M00 A3015 RMK A01 T01851004  RH  028%=      5-min Rain = 0
KPG1 171742Z 35015KT 19/M00 A3015 RMK A01 T01851004  RH  028%=      5-min Rain = 0
KPG1 171743Z 34011KT 19/M00 A3015 RMK A01 T01851004  RH  028%=      5-min Rain = 0
KPG1 171744Z 35011KT 18/M00 A3015 RMK A01 T01841004  RH  028%=      5-min Rain = 0
KPG1 171745Z 35010KT 19/M00 A3015 RMK A01 T01861002  RH  028%=      5-min Rain = 0
KPG1 171746Z 35010KT 19/M00 A3015 RMK A01 T01871002  RH  028%=      5-min Rain = 0
KPG1 171747Z 35008KT 19/M00 A3015 RMK A01 T01881002  RH  028%=      5-min Rain = 0
KPG1 171748Z 35008KT 19/M00 A3015 RMK A01 T01881003  RH  028%=      5-min Rain = 0
KPG1 171749Z 00006KT 19/M00 A3015 RMK A01 T01861004  RH  028%=      5-min Rain = 0
KPG1 171750Z 35009KT 19/M00 A3015 RMK A01 T01871002  RH  028%=      5-min Rain = 0
KPG1 171751Z 01009KT 19/M00 A3015 RMK A01 T01881003  RH  028%=      5-min Rain = 0
KPG1 171752Z 01011KT 19/M00 A3015 RMK A01 T01881003  RH  027%=      5-min Rain = 0
KPG1 171753Z 01009KT 19/M00 A3015 RMK A01 T01881003  RH  027%=      5-min Rain = 0
KPG1 171754Z 03010KT 19/M00 A3015 RMK A01 T01891003  RH  027%=      5-min Rain = 0
KPG1 171755Z 03010KT 19/M00 A3015 RMK A01 T01891004  RH  027%=      5-min Rain = 0
KPG1 171756Z 00006KT 19/M00 A3015 RMK A01 T01891002  RH  028%=      5-min Rain = 0
KPG1 171757Z 01007KT 19/M00 A3015 RMK A01 T01921001  RH  027%=      5-min Rain = 0
KPG1 171758Z 01006KT 19/M00 A3014 RMK A01 T01921002  RH  027%=      5-min Rain = 0
KPG1 171759Z 35005KT 19/M00 A3014 RMK A01 T01921002  RH  027%=      5-min Rain = 0
KPG1 171800Z 34005KT 19/M00 A3014 RMK A01 T01931001  RH  027%=      5-min Rain = 0
KPG1 171801Z 36010KT 19/M00 A3014 RMK A01 T01941003  RH  027%=      5-min Rain = 0
KPG1 171802Z 36010KT 19/M01 A3015 RMK A01 T01931005  RH  026%=      5-min Rain = 0
KPG1 171803Z 00008KT 19/M01 A3015 RMK A01 T01911005  RH  027%=      5-min Rain = 0
KPG1 171804Z 01006KT 19/M00 A3015 RMK A01 T01911004  RH  027%=      5-min Rain = 0
KPG1 171805Z 35009KT 19/M00 A3014 RMK A01 T01911003  RH  027%=      5-min Rain = 0
KPG1 171806Z 34010KT 19/M00 A3014 RMK A01 T01931003  RH  027%=      5-min Rain = 0
KPG1 171807Z 35012KT 19/M00 A3014 RMK A01 T01941003  RH  026%=      5-min Rain = 0
KPG1 171808Z 35008KT 19/M01 A3014 RMK A01 T01931005  RH  026%=      5-min Rain = 0
KPG1 171809Z 35010KT 19/M01 A3014 RMK A01 T01911006  RH  026%=      5-min Rain = 0
KPG1 171810Z 34011KT 19/M01 A3014 RMK A01 T01901006  RH  027%=      5-min Rain = 0
KPG1 171811Z 35009KT 19/M01 A3014 RMK A01 T01901006  RH  027%=      5-min Rain = 0
KPG1 171812Z 34008KT 19/M01 A3014 RMK A01 T01911006  RH  027%=      5-min Rain = 0
KPG1 171813Z 34009KT 19/M01 A3014 RMK A01 T01921006  RH  026%=      5-min Rain = 0
KPG1 171814Z 34012KT 19/M01 A3014 RMK A01 T01921006  RH  026%=      5-min Rain = 0
KPG1 171815Z 35009KT 19/M01 A3014 RMK A01 T01931005  RH  026%=      5-min Rain = 0
KPG1 171816Z 34007KT 19/M01 A3014 RMK A01 T01921006  RH  026%=      5-min Rain = 0
KPG1 171817Z 35008KT 19/M01 A3014 RMK A01 T01911006  RH  027%=      5-min Rain = 0
KPG1 171818Z 34010KT 19/M01 A3014 RMK A01 T01921005  RH  027%=      5-min Rain = 0
KPG1 171819Z 00008KT 19/M01 A3014 RMK A01 T01941005  RH  026%=      5-min Rain = 0
KPG1 171820Z 36007KT 19/M01 A3014 RMK A01 T01931005  RH  026%=      5-min Rain = 0
KPG1 171821Z 35007KT 19/M01 A3014 RMK A01 T01931005  RH  026%=      5-min Rain = 0
KPG1 171822Z 33010KT 19/M01 A3013 RMK A01 T01941005  RH  026%=      5-min Rain = 0
KPG1 171823Z 35007G12KT 19/M01 A3013 RMK A01 T01941005  RH  026%=      5-min Rain = 0
KPG1 171824Z 35010KT 20/M00 A3013 RMK A01 T01961004  RH  026%=      5-min Rain = 0
KPG1 171825Z 00008KT 20/M01 A3013 RMK A01 T01961005  RH  026%=      5-min Rain = 0
KPG1 171826Z 34010KT 20/M01 A3013 RMK A01 T01961006  RH  026%=      5-min Rain = 0
KPG1 171827Z 34009KT 20/M01 A3013 RMK A01 T01961005  RH  026%=      5-min Rain = 0
KPG1 171828Z 34010KT 20/M01 A3013 RMK A01 T01971006  RH  026%=      5-min Rain = 0
KPG1 171829Z 34009KT 20/M01 A3013 RMK A01 T01951007  RH  026%=      5-min Rain = 0
KPG1 171830Z 34007KT 19/M01 A3013 RMK A01 T01941007  RH  026%=      5-min Rain = 0
KPG1 171831Z 35012KT 19/M01 A3013 RMK A01 T01941006  RH  026%=      5-min Rain = 0
KPG1 171832Z 35009KT 20/M01 A3013 RMK A01 T01951007  RH  026%=      5-min Rain = 0
KPG1 171833Z 35009KT 20/M01 A3013 RMK A01 T01951006  RH  026%=      5-min Rain = 0
KPG1 171834Z 36008KT 20/M01 A3013 RMK A01 T01961006  RH  026%=      5-min Rain = 0
KPG1 171835Z 35011KT 20/M01 A3013 RMK A01 T01981005  RH  025%=      5-min Rain = 0
KPG1 171836Z 34011KT 20/M01 A3013 RMK A01 T01981007  RH  025%=      5-min Rain = 0
KPG1 171837Z 32010KT 20/M01 A3013 RMK A01 T01991007  RH  025%=      5-min Rain = 0
KPG1 171838Z 31008KT 20/M01 A3012 RMK A01 T01991008  RH  025%=      5-min Rain = 0
KPG1 171839Z 33008G13KT 20/M01 A3012 RMK A01 T01981007  RH  025%=      5-min Rain = 0
KPG1 171840Z 35012KT 20/M01 A3012 RMK A01 T01991007  RH  025%=      5-min Rain = 0
KPG1 171841Z 36008KT 20/M01 A3012 RMK A01 T02011007  RH  025%=      5-min Rain = 0
KPG1 171842Z 35012KT 20/M01 A3012 RMK A01 T02031006  RH  025%=      5-min Rain = 0
KPG1 171843Z 35011KT 20/M01 A3012 RMK A01 T02041007  RH  024%=      5-min Rain = 0
KPG1 171844Z 35011KT 20/M01 A3012 RMK A01 T02041005  RH  025%=      5-min Rain = 0
KPG1 171845Z 35010G15KT 21/M01 A3012 RMK A01 T02051006  RH  024%=      5-min Rain = 0
KPG1 171846Z 00010KT 21/M01 A3012 RMK A01 T02051006  RH  024%=      5-min Rain = 0
KPG1 171847Z 35010KT 21/M01 A3012 RMK A01 T02051006  RH  024%=      5-min Rain = 0
KPG1 171848Z 35010KT 21/M01 A3012 RMK A01 T02061005  RH  024%=      5-min Rain = 0
KPG1 171849Z 35014KT 21/M01 A3012 RMK A01 T02071005  RH  024%=      5-min Rain = 0
KPG1 171850Z 34009KT 20/M01 A3012 RMK A01 T02041008  RH  024%=      5-min Rain = 0
KPG1 171851Z 34009KT 20/M01 A3012 RMK A01 T02031007  RH  024%=      5-min Rain = 0
KPG1 171852Z 35008KT 20/M01 A3012 RMK A01 T02031007  RH  024%=      5-min Rain = 0
KPG1 171853Z 34013KT 21/M01 A3012 RMK A01 T02051006  RH  024%=      5-min Rain = 0
KPG1 171854Z 35011KT 21/M01 A3012 RMK A01 T02051007  RH  024%=      5-min Rain = 0
KPG1 171855Z 34009KT 20/M01 A3012 RMK A01 T02041007  RH  024%=      5-min Rain = 0
KPG1 171856Z 35009KT 20/M01 A3012 RMK A01 T02041006  RH  024%=      5-min Rain = 0
KPG1 171857Z 35013KT 20/M01 A3012 RMK A01 T02041006  RH  024%=      5-min Rain = 0
KPG1 171858Z 35010KT 20/M01 A3012 RMK A01 T02041007  RH  024%=      5-min Rain = 0
KPG1 171859Z 34009KT 21/M01 A3012 RMK A01 T02051005  RH  024%=      5-min Rain = 0
KPG1 171900Z 33010KT 21/M01 A3012 RMK A01 T02061006  RH  024%=      5-min Rain = 0
KPG1 171901Z 36008G14KT 21/M01 A3012 RMK A01 T02051005  RH  024%=      5-min Rain = 0
KPG1 171902Z 35012KT 21/M00 A3012 RMK A01 T02071004  RH  024%=      5-min Rain = 0
KPG1 171903Z 36010KT 21/M01 A3012 RMK A01 T02081006  RH  024%=      5-min Rain = 0
KPG1 171904Z 36006KT 21/M01 A3012 RMK A01 T02061006  RH  024%=      5-min Rain = 0
KPG1 171905Z 35009KT 21/M01 A3012 RMK A01 T02061006  RH  024%=      5-min Rain = 0
KPG1 171906Z 02009KT 21/M01 A3012 RMK A01 T02061006  RH  024%=      5-min Rain = 0
KPG1 171907Z 36012KT 21/M01 A3012 RMK A01 T02071006  RH  024%=      5-min Rain = 0
KPG1 171908Z 34011KT 21/M01 A3012 RMK A01 T02061006  RH  024%=      5-min Rain = 0
KPG1 171909Z 01011KT 21/M01 A3011 RMK A01 T02061006  RH  024%=      5-min Rain = 0
KPG1 171910Z 35010KT 21/M01 A3011 RMK A01 T02071006  RH  024%=      5-min Rain = 0
KPG1 171911Z 35008KT 21/M00 A3011 RMK A01 T02081004  RH  024%=      5-min Rain = 0
KPG1 171912Z 35007KT 21/M00 A3011 RMK A01 T02101003  RH  024%=      5-min Rain = 0
KPG1 171913Z 35011KT 21/M00 A3011 RMK A01 T02111004  RH  024%=      5-min Rain = 0
KPG1 171914Z 35011KT 21/M01 A3011 RMK A01 T02111005  RH  024%=      5-min Rain = 0
KPG1 171915Z 35011KT 21/M01 A3011 RMK A01 T02091005  RH  024%=      5-min Rain = 0
KPG1 171916Z 36009KT 21/M01 A3011 RMK A01 T02101005  RH  024%=      5-min Rain = 0
KPG1 171917Z 01007KT 21/M01 A3011 RMK A01 T02101006  RH  024%=      5-min Rain = 0
KPG1 171918Z 01006KT 21/M01 A3011 RMK A01 T02081006  RH  024%=      5-min Rain = 0
KPG1 171919Z 00007KT 21/M01 A3011 RMK A01 T02071006  RH  024%=      5-min Rain = 0
KPG1 171920Z 35007KT 21/M01 A3011 RMK A01 T02081006  RH  024%=      5-min Rain = 0
KPG1 171921Z 35006KT 21/M01 A3011 RMK A01 T02081005  RH  024%=      5-min Rain = 0
KPG1 171922Z 01007KT 21/M00 A3011 RMK A01 T02081003  RH  024%=      5-min Rain = 0
KPG1 171923Z 03004KT 21/M00 A3011 RMK A01 T02121001  RH  024%=      5-min Rain = 0
KPG1 171924Z 35009KT 22/M00 A3011 RMK A01 T02151002  RH  024%=      5-min Rain = 0
KPG1 171925Z 36007KT 22/M00 A3011 RMK A01 T02161003  RH  023%=      5-min Rain = 0
KPG1 171926Z 34009KT 22/M01 A301 RMK A01 T02151005  RH  023%=      5-min Rain = 0
KPG1 171927Z 36012KT 21/M01 A301 RMK A01 T02131007  RH  023%=      5-min Rain = 0
KPG1 171928Z 35010KT 21/M01 A301 RMK A01 T02131007  RH  023%=      5-min Rain = 0
KPG1 171929Z 34009KT 21/M01 A301 RMK A01 T02131005  RH  023%=      5-min Rain = 0
KPG1 171930Z 33009KT 21/M00 A301 RMK A01 T02141004  RH  023%=      5-min Rain = 0
KPG1 171931Z 34012KT 22/M01 A301 RMK A01 T02151005  RH  023%=      5-min Rain = 0
KPG1 171932Z 33010KT 21/M01 A301 RMK A01 T02141006  RH  023%=      5-min Rain = 0
KPG1 171933Z 31007KT 21/M01 A301 RMK A01 T02131007  RH  023%=      5-min Rain = 0
KPG1 171934Z 00007KT 21/M01 A301 RMK A01 T02111008  RH  023%=      5-min Rain = 0
KPG1 171935Z 35007KT 21/M01 A301 RMK A01 T02101007  RH  023%=      5-min Rain = 0
KPG1 171936Z 01007KT 21/M01 A301 RMK A01 T02101008  RH  023%=      5-min Rain = 0
KPG1 171937Z 00007KT 21/M01 A301 RMK A01 T02101008  RH  023%=      5-min Rain = 0
KPG1 171938Z 36006G11KT 21/M01 A301 RMK A01 T02121006  RH  023%=      5-min Rain = 0
KPG1 171939Z 01010KT 21/M01 A301 RMK A01 T02141007  RH  023%=      5-min Rain = 0
KPG1 171940Z 02010KT 21/M01 A301 RMK A01 T02141008  RH  023%=      5-min Rain = 0
KPG1 171941Z 00011KT 21/M01 A3009 RMK A01 T02141007  RH  023%=      5-min Rain = 0
KPG1 171942Z 36012KT 22/M01 A3009 RMK A01 T02161006  RH  023%=      5-min Rain = 0
KPG1 171943Z 35009KT 22/M01 A301 RMK A01 T02161007  RH  022%=      5-min Rain = 0
KPG1 171944Z 34008KT 21/M01 A3009 RMK A01 T02131008  RH  023%=      5-min Rain = 0
KPG1 171945Z 01008KT 21/M01 A3009 RMK A01 T02131006  RH  023%=      5-min Rain = 0
KPG1 171946Z 36010KT 22/M00 A3009 RMK A01 T02161004  RH  023%=      5-min Rain = 0
KPG1 171947Z 34009KT 22/M01 A3009 RMK A01 T02191006  RH  022%=      5-min Rain = 0
KPG1 171948Z 00005KT 22/M01 A3009 RMK A01 T02191007  RH  022%=      5-min Rain = 0
KPG1 171949Z 01008KT 22/M01 A3009 RMK A01 T02201005  RH  022%=      5-min Rain = 0
KPG1 171950Z 00008KT 22/M01 A3009 RMK A01 T02211006  RH  022%=      5-min Rain = 0
KPG1 171951Z 33007KT 22/M01 A3009 RMK A01 T02201006  RH  022%=      5-min Rain = 0
KPG1 171952Z 00006KT 22/M01 A3009 RMK A01 T02201007  RH  022%=      5-min Rain = 0
KPG1 171953Z 01008KT 22/M01 A3009 RMK A01 T02211005  RH  022%=      5-min Rain = 0
KPG1 171954Z 01009KT 22/M01 A3009 RMK A01 T02231006  RH  022%=      5-min Rain = 0
KPG1 171955Z 02009KT 22/M01 A3009 RMK A01 T02221007  RH  022%=      5-min Rain = 0
KPG1 171956Z 01008KT 22/M01 A3009 RMK A01 T02201007  RH  022%=      5-min Rain = 0
KPG1 171957Z 01009KT 22/M01 A3009 RMK A01 T02191008  RH  022%=      5-min Rain = 0
KPG1 171958Z 01008KT 22/M01 A3009 RMK A01 T02181007  RH  022%=      5-min Rain = 0
KPG1 171959Z 01011KT 22/M01 A3009 RMK A01 T02191008  RH  022%=      5-min Rain = 0
KPG1 172000Z 36010KT 22/M01 A3009 RMK A01 T02181009  RH  022%=      5-min Rain = 0
KPG1 172001Z 35013KT 22/M01 A3009 RMK A01 T02181009  RH  022%=      5-min Rain = 0
KPG1 172002Z 35011KT 22/M01 A3009 RMK A01 T02191008  RH  022%=      5-min Rain = 0
KPG1 172003Z 36010KT 22/M01 A3009 RMK A01 T02211007  RH  022%=      5-min Rain = 0
KPG1 172004Z 35012KT 22/M01 A3009 RMK A01 T02211007  RH  022%=      5-min Rain = 0
KPG1 172005Z 35012KT 22/M01 A3009 RMK A01 T02191009  RH  022%=      5-min Rain = 0
KPG1 172006Z 01010KT 22/M01 A3009 RMK A01 T02181007  RH  022%=      5-min Rain = 0
KPG1 172007Z 36009KT 22/M01 A3009 RMK A01 T02181008  RH  022%=      5-min Rain = 0
KPG1 172008Z 34008KT 22/M01 A3008 RMK A01 T02171007  RH  022%=      5-min Rain = 0
KPG1 172009Z 00008KT 22/M01 A3008 RMK A01 T02171007  RH  022%=      5-min Rain = 0
KPG1 172010Z 00006KT 22/M01 A3008 RMK A01 T02191006  RH  022%=      5-min Rain = 0
KPG1 172011Z 34005KT 22/M01 A3008 RMK A01 T02201006  RH  022%=      5-min Rain = 0
KPG1 172012Z 36008KT 22/M01 A3008 RMK A01 T02201007  RH  022%=      5-min Rain = 0
KPG1 172013Z 36011KT 22/M01 A3008 RMK A01 T02201008  RH  022%=      5-min Rain = 0
KPG1 172014Z 35010KT 22/M01 A3008 RMK A01 T02191008  RH  022%=      5-min Rain = 0
KPG1 172015Z 34009KT 22/M01 A3008 RMK A01 T02191008  RH  022%=      5-min Rain = 0
KPG1 172016Z 01009KT 22/M01 A3008 RMK A01 T02201008  RH  022%=      5-min Rain = 0
KPG1 172017Z 02010KT 22/M01 A3008 RMK A01 T02211008  RH  022%=      5-min Rain = 0
KPG1 172018Z 36007KT 22/M01 A3008 RMK A01 T02211007  RH  022%=      5-min Rain = 0
KPG1 172019Z 35007KT 22/M01 A3008 RMK A01 T02221009  RH  021%=      5-min Rain = 0
KPG1 172020Z 01006KT 22/M01 A3008 RMK A01 T02221010  RH  021%=      5-min Rain = 0
KPG1 172021Z 01009KT 22/M01 A3008 RMK A01 T02221010  RH  021%=      5-min Rain = 0
KPG1 172022Z 36013KT 22/M01 A3008 RMK A01 T02221009  RH  021%=      5-min Rain = 0
KPG1 172023Z 34013KT 22/M01 A3008 RMK A01 T02231009  RH  021%=      5-min Rain = 0
KPG1 172024Z 36009KT 22/M01 A3008 RMK A01 T02231009  RH  021%=      5-min Rain = 0
KPG1 172025Z 35007KT 22/M01 A3008 RMK A01 T02231009  RH  021%=      5-min Rain = 0
KPG1 172026Z 00006KT 22/M01 A3008 RMK A01 T02211009  RH  022%=      5-min Rain = 0
KPG1 172027Z 35004KT 22/M01 A3008 RMK A01 T02211005  RH  022%=      5-min Rain = 0
KPG1 172028Z 34006KT 22/M00 A3008 RMK A01 T02241002  RH  022%=      5-min Rain = 0
KPG1 172029Z 35009KT 23/M00 A3008 RMK A01 T02261003  RH  022%=      5-min Rain = 0
KPG1 172030Z 35005KT 22/M01 A3008 RMK A01 T02241006  RH  022%=      5-min Rain = 0
KPG1 172031Z 35006KT 22/M01 A3008 RMK A01 T02201007  RH  022%=      5-min Rain = 0
KPG1 172032Z 02006KT 22/M01 A3008 RMK A01 T02191006  RH  022%=      5-min Rain = 0
KPG1 172033Z 04005KT 22/M01 A3008 RMK A01 T02191005  RH  022%=      5-min Rain = 0
KPG1 172034Z 03006KT 22/M01 A3007 RMK A01 T02211005  RH  022%=      5-min Rain = 0
KPG1 172035Z 01009KT 22/M01 A3007 RMK A01 T02201008  RH  022%=      5-min Rain = 0
KPG1 172036Z 00006KT 22/M01 A3007 RMK A01 T02191010  RH  022%=      5-min Rain = 0
KPG1 172037Z 32007KT 22/M01 A3007 RMK A01 T02181010  RH  022%=      5-min Rain = 0
KPG1 172038Z 34007KT 22/M01 A3007 RMK A01 T02181009  RH  022%=      5-min Rain = 0
KPG1 172039Z 01008KT 22/M01 A3007 RMK A01 T02191007  RH  022%=      5-min Rain = 0
KPG1 172040Z 01008KT 22/M01 A3007 RMK A01 T02211006  RH  022%=      5-min Rain = 0
KPG1 172041Z 03007KT 22/M01 A3007 RMK A01 T02221007  RH  022%=      5-min Rain = 0
KPG1 172042Z 00009KT 22/M01 A3007 RMK A01 T02201008  RH  022%=      5-min Rain = 0
KPG1 172043Z 02006KT 22/M01 A3007 RMK A01 T02201008  RH  022%=      5-min Rain = 0
KPG1 172044Z 35006KT 22/M01 A3007 RMK A01 T02211007  RH  022%=      5-min Rain = 0
KPG1 172045Z 35005KT 22/M01 A3007 RMK A01 T02231005  RH  022%=      5-min Rain = 0
KPG1 172046Z 36009KT 23/M01 A3007 RMK A01 T02261005  RH  022%=      5-min Rain = 0
KPG1 172047Z 35007KT 23/M01 A3007 RMK A01 T02251009  RH  021%=      5-min Rain = 0
KPG1 172048Z 00003KT 22/M01 A3007 RMK A01 T02231011  RH  021%=      5-min Rain = 0
KPG1 172049Z 02007KT 22/M01 A3007 RMK A01 T02221010  RH  021%=      5-min Rain = 0
KPG1 172050Z 01006KT 22/M01 A3007 RMK A01 T02211008  RH  022%=      5-min Rain = 0
KPG1 172051Z 00008KT 22/M01 A3007 RMK A01 T02221008  RH  021%=      5-min Rain = 0
KPG1 172052Z 01007KT 22/M01 A3007 RMK A01 T02231011  RH  021%=      5-min Rain = 0
KPG1 172053Z 00007KT 22/M01 A3007 RMK A01 T02211011  RH  021%=      5-min Rain = 0
KPG1 172054Z 34007KT 22/M01 A3007 RMK A01 T02231008  RH  021%=      5-min Rain = 0
KPG1 172055Z 32006KT 23/M01 A3007 RMK A01 T02251008  RH  021%=      5-min Rain = 0
KPG1 172056Z 31004KT 22/M01 A3007 RMK A01 T02241009  RH  021%=      5-min Rain = 0
KPG1 172057Z 36006KT 22/M01 A3007 RMK A01 T02241007  RH  021%=      5-min Rain = 0
KPG1 172058Z 35006KT 23/M01 A3006 RMK A01 T02251005  RH  022%=      5-min Rain = 0
KPG1 172059Z 00005KT 23/M00 A3006 RMK A01 T02251004  RH  022%=      5-min Rain = 0
KPG1 172100Z 35008KT 23/M00 A3006 RMK A01 T02271004  RH  022%=      5-min Rain = 0
KPG1 172101Z 35005KT 23/M01 A3007 RMK A01 T02261006  RH  021%=      5-min Rain = 0
KPG1 172102Z 02003KT 22/M01 A3006 RMK A01 T02231007  RH  022%=      5-min Rain = 0
KPG1 172103Z 00004KT 22/M01 A3006 RMK A01 T02221006  RH  022%=      5-min Rain = 0
KPG1 172104Z 36006KT 22/M01 A3006 RMK A01 T02231007  RH  022%=      5-min Rain = 0
KPG1 172105Z 35008KT 22/M01 A3006 RMK A01 T02241008  RH  021%=      5-min Rain = 0
KPG1 172106Z 35008KT 22/M01 A3006 RMK A01 T02241008  RH  021%=      5-min Rain = 0
KPG1 172107Z 01008KT 22/M01 A3006 RMK A01 T02241009  RH  021%=      5-min Rain = 0
KPG1 172108Z 01006KT 22/M01 A3006 RMK A01 T02231009  RH  021%=      5-min Rain = 0
KPG1 172109Z 01007KT 22/M01 A3006 RMK A01 T02241008  RH  021%=      5-min Rain = 0
KPG1 172110Z 01004KT 22/M01 A3006 RMK A01 T02241009  RH  021%=      5-min Rain = 0
KPG1 172111Z 35006KT 22/M01 A3006 RMK A01 T02241008  RH  021%=      5-min Rain = 0
KPG1 172112Z 35005KT 22/M01 A3006 RMK A01 T02241009  RH  021%=      5-min Rain = 0
KPG1 172113Z 36005KT 22/M01 A3006 RMK A01 T02241010  RH  021%=      5-min Rain = 0
KPG1 172114Z 01004KT 22/M01 A3006 RMK A01 T02231009  RH  021%=      5-min Rain = 0
KPG1 172115Z 02006KT 22/M01 A3006 RMK A01 T02241008  RH  021%=      5-min Rain = 0
KPG1 172116Z 35006KT 22/M01 A3006 RMK A01 T02241010  RH  021%=      5-min Rain = 0
KPG1 172117Z 02004KT 22/M01 A3006 RMK A01 T02241008  RH  021%=      5-min Rain = 0
KPG1 172118Z 02005KT 23/M01 A3006 RMK A01 T02261008  RH  021%=      5-min Rain = 0
KPG1 172119Z 32005KT 23/M01 A3006 RMK A01 T02271007  RH  021%=      5-min Rain = 0
KPG1 172120Z 35006KT 23/M01 A3006 RMK A01 T02271008  RH  021%=      5-min Rain = 0
KPG1 172121Z 35005KT 23/M01 A3006 RMK A01 T02271013  RH  020%=      5-min Rain = 0
KPG1 172122Z 35007KT 22/M01 A3006 RMK A01 T02241013  RH  021%=      5-min Rain = 0
KPG1 172123Z 36006KT 22/M01 A3006 RMK A01 T02241012  RH  021%=      5-min Rain = 0
KPG1 172124Z 01007KT 22/M01 A3006 RMK A01 T02221013  RH  021%=      5-min Rain = 0
KPG1 172125Z 02008KT 22/M01 A3006 RMK A01 T02221012  RH  021%=      5-min Rain = 0
KPG1 172126Z 01006KT 22/M01 A3006 RMK A01 T02221012  RH  021%=      5-min Rain = 0
KPG1 172127Z 36007KT 22/M01 A3006 RMK A01 T02231010  RH  021%=      5-min Rain = 0
KPG1 172128Z 36007KT 22/M01 A3006 RMK A01 T02241009  RH  021%=      5-min Rain = 0
KPG1 172129Z 01006KT 23/M01 A3006 RMK A01 T02251010  RH  021%=      5-min Rain = 0
KPG1 172130Z 00006KT 22/M01 A3006 RMK A01 T02241010  RH  021%=      5-min Rain = 0
KPG1 172131Z 36005KT 23/M01 A3006 RMK A01 T02251010  RH  021%=      5-min Rain = 0
KPG1 172132Z 36004KT 22/M01 A3006 RMK A01 T02241010  RH  021%=      5-min Rain = 0
KPG1 172133Z 01005KT 22/M01 A3006 RMK A01 T02231011  RH  021%=      5-min Rain = 0
KPG1 172134Z 01006KT 22/M01 A3006 RMK A01 T02221010  RH  021%=      5-min Rain = 0
KPG1 172135Z 34006KT 22/M01 A3006 RMK A01 T02241008  RH  021%=      5-min Rain = 0
KPG1 172136Z 34007KT 23/M01 A3006 RMK A01 T02251008  RH  021%=      5-min Rain = 0
KPG1 172137Z 33005KT 22/M01 A3006 RMK A01 T02241010  RH  021%=      5-min Rain = 0
KPG1 172138Z 34007KT 22/M01 A3006 RMK A01 T02241009  RH  021%=      5-min Rain = 0
KPG1 172139Z 35010KT 22/M01 A3006 RMK A01 T02241010  RH  021%=      5-min Rain = 0
KPG1 172140Z 36009KT 22/M01 A3006 RMK A01 T02231011  RH  021%=      5-min Rain = 0
KPG1 172141Z 35007KT 22/M01 A3006 RMK A01 T02221011  RH  021%=      5-min Rain = 0
KPG1 172142Z 01006KT 22/M01 A3006 RMK A01 T02221011  RH  021%=      5-min Rain = 0
KPG1 172143Z 03005KT 22/M01 A3006 RMK A01 T02211011  RH  021%=      5-min Rain = 0
KPG1 172144Z 03005KT 22/M01 A3006 RMK A01 T02221011  RH  021%=      5-min Rain = 0
KPG1 172145Z 02004KT 22/M01 A3006 RMK A01 T02221011  RH  021%=      5-min Rain = 0
KPG1 172146Z 01006KT 22/M01 A3006 RMK A01 T02231010  RH  021%=      5-min Rain = 0
KPG1 172147Z 01007KT 22/M01 A3006 RMK A01 T02231010  RH  021%=      5-min Rain = 0
KPG1 172148Z 01007KT 22/M01 A3006 RMK A01 T02231010  RH  021%=      5-min Rain = 0
KPG1 172149Z 01005KT 22/M01 A3006 RMK A01 T02231010  RH  021%=      5-min Rain = 0
KPG1 172150Z 00004KT 22/M01 A3006 RMK A01 T02241007  RH  021%=      5-min Rain = 0
KPG1 172151Z 35005KT 23/M01 A3006 RMK A01 T02281006  RH  021%=      5-min Rain = 0
KPG1 172152Z 00007KT 23/M01 A3006 RMK A01 T02291007  RH  021%=      5-min Rain = 0
KPG1 172153Z 00006KT 23/M01 A3006 RMK A01 T02291008  RH  021%=      5-min Rain = 0
KPG1 172154Z 36008KT 23/M01 A3006 RMK A01 T02291009  RH  020%=      5-min Rain = 0
KPG1 172155Z 35006KT 23/M01 A3006 RMK A01 T02291009  RH  021%=      5-min Rain = 0
KPG1 172156Z 29004KT 23/M01 A3006 RMK A01 T02281009  RH  021%=      5-min Rain = 0
KPG1 172157Z 27002KT 23/M01 A3006 RMK A01 T02281011  RH  020%=      5-min Rain = 0
KPG1 172158Z 34001KT 23/M01 A3006 RMK A01 T02291009  RH  021%=      5-min Rain = 0
KPG1 172159Z 35003G8KT 23/M01 A3006 RMK A01 T02301009  RH  020%=      5-min Rain = 0
KPG1 172200Z 34006KT 23/M01 A3006 RMK A01 T02311008  RH  020%=      5-min Rain = 0
KPG1 172201Z 36006KT 23/M01 A3006 RMK A01 T02301010  RH  020%=      5-min Rain = 0
KPG1 172202Z 35006KT 23/M01 A3006 RMK A01 T02291009  RH  021%=      5-min Rain = 0
KPG1 172203Z 36006KT 23/M01 A3006 RMK A01 T02281010  RH  020%=      5-min Rain = 0
KPG1 172204Z 35006KT 23/M01 A3006 RMK A01 T02271011  RH  020%=      5-min Rain = 0
KPG1 172205Z 35005KT 23/M01 A3006 RMK A01 T02261010  RH  021%=      5-min Rain = 0
KPG1 172206Z 35005KT 23/M01 A3006 RMK A01 T02271009  RH  021%=      5-min Rain = 0
KPG1 172207Z 35005KT 23/M01 A3006 RMK A01 T02281008  RH  021%=      5-min Rain = 0
KPG1 172208Z 35006KT 23/M01 A3006 RMK A01 T02291008  RH  021%=      5-min Rain = 0
KPG1 172209Z 01004KT 23/M01 A3006 RMK A01 T02291009  RH  021%=      5-min Rain = 0
KPG1 172210Z 00004KT 23/M01 A3006 RMK A01 T02291008  RH  021%=      5-min Rain = 0
KPG1 172211Z 01005KT 23/M01 A3006 RMK A01 T02291009  RH  020%=      5-min Rain = 0
KPG1 172212Z 01007KT 23/M01 A3006 RMK A01 T02291009  RH  020%=      5-min Rain = 0
KPG1 172213Z 00008KT 23/M01 A3006 RMK A01 T02281010  RH  020%=      5-min Rain = 0
KPG1 172214Z 00007KT 23/M01 A3006 RMK A01 T02281010  RH  020%=      5-min Rain = 0
KPG1 172215Z 00007KT 23/M01 A3006 RMK A01 T02271011  RH  020%=      5-min Rain = 0
KPG1 172216Z 01006KT 23/M01 A3006 RMK A01 T02261012  RH  020%=      5-min Rain = 0
KPG1 172217Z 01006KT 23/M01 A3006 RMK A01 T02251012  RH  021%=      5-min Rain = 0
KPG1 172218Z 01005KT 22/M01 A3006 RMK A01 T02241012  RH  021%=      5-min Rain = 0
KPG1 172219Z 01002KT 22/M01 A3006 RMK A01 T02241012  RH  021%=      5-min Rain = 0
KPG1 172220Z 35002KT 22/M01 A3006 RMK A01 T02241012  RH  021%=      5-min Rain = 0
KPG1 172221Z 01004KT 22/M01 A3006 RMK A01 T02241011  RH  021%=      5-min Rain = 0
KPG1 172222Z 03005KT 22/M01 A3006 RMK A01 T02241011  RH  021%=      5-min Rain = 0
KPG1 172223Z 03005KT 23/M01 A3006 RMK A01 T02251012  RH  021%=      5-min Rain = 0
KPG1 172224Z 03005KT 22/M01 A3006 RMK A01 T02241012  RH  021%=      5-min Rain = 0
KPG1 172225Z 02005KT 22/M01 A3006 RMK A01 T02241011  RH  021%=      5-min Rain = 0
KPG1 172226Z 02003KT 22/M01 A3006 RMK A01 T02231011  RH  021%=      5-min Rain = 0
KPG1 172227Z 01006KT 22/M01 A3006 RMK A01 T02241009  RH  021%=      5-min Rain = 0
KPG1 172228Z 00004KT 22/M01 A3006 RMK A01 T02241011  RH  021%=      5-min Rain = 0
KPG1 172229Z 35003KT 22/M01 A3006 RMK A01 T02241009  RH  021%=      5-min Rain = 0
KPG1 172230Z 01004KT 23/M01 A3006 RMK A01 T02251009  RH  021%=      5-min Rain = 0
KPG1 172231Z 00006KT 23/M01 A3006 RMK A01 T02251010  RH  021%=      5-min Rain = 0
KPG1 172232Z 00005KT 22/M01 A3006 RMK A01 T02241011  RH  021%=      5-min Rain = 0
KPG1 172233Z 36004KT 22/M01 A3006 RMK A01 T02241010  RH  021%=      5-min Rain = 0
KPG1 172234Z 36005KT 22/M01 A3006 RMK A01 T02231010  RH  021%=      5-min Rain = 0
KPG1 172235Z 35004KT 22/M01 A3006 RMK A01 T02231010  RH  021%=      5-min Rain = 0
KPG1 172236Z 34005KT 22/M01 A3006 RMK A01 T02231009  RH  021%=      5-min Rain = 0
KPG1 172237Z 34006KT 22/M01 A3006 RMK A01 T02221010  RH  021%=      5-min Rain = 0
KPG1 172238Z 35005KT 22/M01 A3006 RMK A01 T02211010  RH  021%=      5-min Rain = 0
KPG1 172239Z 00006KT 22/M01 A3006 RMK A01 T02201009  RH  022%=      5-min Rain = 0
KPG1 172240Z 35005KT 22/M01 A3006 RMK A01 T02201010  RH  021%=      5-min Rain = 0
KPG1 172241Z 35004KT 22/M01 A3005 RMK A01 T02201010  RH  022%=      5-min Rain = 0
KPG1 172242Z 35005KT 22/M01 A3005 RMK A01 T02201010  RH  022%=      5-min Rain = 0
KPG1 172243Z 35004KT 22/M01 A3005 RMK A01 T02201010  RH  021%=      5-min Rain = 0
KPG1 172244Z 01006KT 22/M01 A3005 RMK A01 T02201009  RH  022%=      5-min Rain = 0
KPG1 172245Z 02005KT 22/M01 A3005 RMK A01 T02201010  RH  021%=      5-min Rain = 0
KPG1 172246Z 02005KT 22/M01 A3005 RMK A01 T02201009  RH  022%=      5-min Rain = 0
KPG1 172247Z 01004KT 22/M01 A3005 RMK A01 T02211009  RH  021%=      5-min Rain = 0
KPG1 172248Z 02004KT 22/M01 A3005 RMK A01 T02221009  RH  021%=      5-min Rain = 0
KPG1 172249Z 02007KT 22/M01 A3005 RMK A01 T02221009  RH  021%=      5-min Rain = 0
KPG1 172250Z 03007KT 22/M01 A3005 RMK A01 T02221010  RH  021%=      5-min Rain = 0
KPG1 172251Z 02007KT 22/M01 A3005 RMK A01 T02211010  RH  021%=      5-min Rain = 0
KPG1 172252Z 02007KT 22/M01 A3005 RMK A01 T02211010  RH  021%=      5-min Rain = 0
KPG1 172253Z 03007KT 22/M01 A3005 RMK A01 T02201010  RH  021%=      5-min Rain = 0
KPG1 172254Z 02008KT 22/M01 A3005 RMK A01 T02201010  RH  021%=      5-min Rain = 0
KPG1 172255Z 02007KT 22/M01 A3005 RMK A01 T02201010  RH  021%=      5-min Rain = 0
KPG1 172256Z 02007KT 22/M01 A3005 RMK A01 T02201011  RH  021%=      5-min Rain = 0
KPG1 172257Z 02007KT 22/M01 A3005 RMK A01 T02201011  RH  021%=      5-min Rain = 0
KPG1 172258Z 03007KT 22/M01 A3005 RMK A01 T02201011  RH  021%=      5-min Rain = 0
KPG1 172259Z 02006KT 22/M01 A3005 RMK A01 T02201011  RH  021%=      5-min Rain = 0
KPG1 172300Z 01006KT 22/M01 A3005 RMK A01 T02201011  RH  021%=      5-min Rain = 0
KPG1 172301Z 35006KT 22/M01 A3005 RMK A01 T02201010  RH  022%=      5-min Rain = 0
KPG1 172302Z 36006KT 22/M01 A3005 RMK A01 T02201009  RH  022%=      5-min Rain = 0
KPG1 172303Z 35004KT 22/M01 A3005 RMK A01 T02191008  RH  022%=      5-min Rain = 0
KPG1 172304Z 36005KT 22/M01 A3006 RMK A01 T02191007  RH  022%=      5-min Rain = 0
KPG1 172305Z 36006KT 22/M01 A3006 RMK A01 T02191007  RH  022%=      5-min Rain = 0
KPG1 172306Z 01004KT 22/M01 A3006 RMK A01 T02191008  RH  022%=      5-min Rain = 0
KPG1 172307Z 01004KT 22/M01 A3006 RMK A01 T02181009  RH  022%=      5-min Rain = 0
KPG1 172308Z 36004KT 22/M01 A3006 RMK A01 T02191009  RH  022%=      5-min Rain = 0
KPG1 172309Z 00005KT 22/M01 A3006 RMK A01 T02181008  RH  022%=      5-min Rain = 0
KPG1 172310Z 00004KT 22/M01 A3006 RMK A01 T02181010  RH  022%=      5-min Rain = 0
KPG1 172311Z 35004KT 22/M01 A3006 RMK A01 T02181011  RH  022%=      5-min Rain = 0
KPG1 172312Z 00005KT 22/M01 A3006 RMK A01 T02181011  RH  022%=      5-min Rain = 0
KPG1 172313Z 00005KT 22/M01 A3006 RMK A01 T02181010  RH  022%=      5-min Rain = 0
KPG1 172314Z 01004KT 22/M01 A3006 RMK A01 T02171011  RH  022%=      5-min Rain = 0
KPG1 172315Z 02005KT 22/M01 A3006 RMK A01 T02171010  RH  022%=      5-min Rain = 0
KPG1 172316Z 02005KT 22/M01 A3006 RMK A01 T02161010  RH  022%=      5-min Rain = 0
KPG1 172317Z 02005KT 22/M01 A3006 RMK A01 T02161010  RH  022%=      5-min Rain = 0
KPG1 172318Z 02005KT 22/M01 A3006 RMK A01 T02151011  RH  022%=      5-min Rain = 0
KPG1 172319Z 03005KT 22/M01 A3006 RMK A01 T02151010  RH  022%=      5-min Rain = 0
KPG1 172320Z 02005KT 21/M01 A3005 RMK A01 T02141010  RH  022%=      5-min Rain = 0
KPG1 172321Z 01005KT 21/M01 A3005 RMK A01 T02141009  RH  022%=      5-min Rain = 0
KPG1 172322Z 02005KT 21/M01 A3005 RMK A01 T02131009  RH  023%=      5-min Rain = 0
KPG1 172323Z 02005KT 21/M01 A3005 RMK A01 T02131009  RH  023%=      5-min Rain = 0
KPG1 172324Z 02005KT 21/M01 A3005 RMK A01 T02121010  RH  023%=      5-min Rain = 0
KPG1 172325Z 01005KT 21/M01 A3006 RMK A01 T02121009  RH  023%=      5-min Rain = 0
KPG1 172326Z 01005KT 21/M01 A3006 RMK A01 T02121008  RH  023%=      5-min Rain = 0
KPG1 172327Z 02005KT 21/M01 A3006 RMK A01 T02111009  RH  023%=      5-min Rain = 0
KPG1 172328Z 01005KT 21/M01 A3006 RMK A01 T02101009  RH  023%=      5-min Rain = 0
KPG1 172329Z 01006KT 21/M01 A3006 RMK A01 T02101009  RH  023%=      5-min Rain = 0
KPG1 172330Z 01006KT 21/M01 A3006 RMK A01 T02101009  RH  023%=      5-min Rain = 0
KPG1 172331Z 01006KT 21/M01 A3006 RMK A01 T02091009  RH  023%=      5-min Rain = 0
KPG1 172332Z 01005KT 21/M01 A3006 RMK A01 T02081009  RH  023%=      5-min Rain = 0
KPG1 172333Z 00006KT 21/M01 A3006 RMK A01 T02081009  RH  023%=      5-min Rain = 0
KPG1 172334Z 00006KT 21/M01 A3006 RMK A01 T02071007  RH  024%=      5-min Rain = 0
KPG1 172335Z 00006KT 21/M01 A3006 RMK A01 T02061009  RH  024%=      5-min Rain = 0
KPG1 172336Z 00006KT 21/M01 A3006 RMK A01 T02061009  RH  024%=      5-min Rain = 0
KPG1 172337Z 00007KT 21/M01 A3006 RMK A01 T02061009  RH  024%=      5-min Rain = 0
KPG1 172338Z 01007KT 21/M01 A3006 RMK A01 T02061009  RH  024%=      5-min Rain = 0
KPG1 172339Z 00006KT 21/M01 A3006 RMK A01 T02061009  RH  024%=      5-min Rain = 0
KPG1 172340Z 00007KT 21/M01 A3006 RMK A01 T02061009  RH  024%=      5-min Rain = 0
KPG1 172341Z 01006KT 21/M01 A3006 RMK A01 T02061009  RH  024%=      5-min Rain = 0
KPG1 172342Z 02007KT 21/M01 A3006 RMK A01 T02061009  RH  024%=      5-min Rain = 0
KPG1 172343Z 02006KT 21/M01 A3006 RMK A01 T02051010  RH  024%=      5-min Rain = 0
KPG1 172344Z 02006KT 21/M01 A3006 RMK A01 T02051010  RH  024%=      5-min Rain = 0
KPG1 172345Z 02006KT 21/M01 A3006 RMK A01 T02051010  RH  024%=      5-min Rain = 0
KPG1 172346Z 01005KT 21/M01 A3006 RMK A01 T02051009  RH  024%=      5-min Rain = 0
KPG1 172347Z 02006KT 21/M01 A3006 RMK A01 T02051009  RH  024%=      5-min Rain = 0
KPG1 172348Z 02006KT 21/M01 A3006 RMK A01 T02051009  RH  024%=      5-min Rain = 0
KPG1 172349Z 02006KT 20/M01 A3006 RMK A01 T02041009  RH  024%=      5-min Rain = 0
KPG1 172350Z 02006KT 20/M01 A3006 RMK A01 T02031008  RH  024%=      5-min Rain = 0
KPG1 172351Z 02006KT 20/M01 A3006 RMK A01 T02021008  RH  024%=      5-min Rain = 0
KPG1 172352Z 02005KT 20/M01 A3006 RMK A01 T02011008  RH  025%=      5-min Rain = 0
KPG1 172353Z 02005KT 20/M01 A3006 RMK A01 T01991007  RH  025%=      5-min Rain = 0
KPG1 172354Z 02005KT 20/M01 A3006 RMK A01 T01971007  RH  025%=      5-min Rain = 0
KPG1 172355Z 02006KT 20/M01 A3006 RMK A01 T01971007  RH  025%=      5-min Rain = 0
KPG1 172356Z 01007KT 20/M01 A3006 RMK A01 T01951007  RH  026%=      5-min Rain = 0
KPG1 172357Z 02005KT 20/M01 A3006 RMK A01 T01961008  RH  025%=      5-min Rain = 0
KPG1 172358Z 01006KT 20/M01 A3006 RMK A01 T01961007  RH  025%=      5-min Rain = 0
KPG1 172359Z 02006KT 20/M01 A3006 RMK A01 T01961008  RH  025%=      5-min Rain = 0
KPG1 180000Z 01006KT 20/M01 A3006 RMK A01 T01961006  RH  026%=      5-min Rain = 0
KPG1 180001Z 02006KT 20/M01 A3006 RMK A01 T01951007  RH  026%=      5-min Rain = 0
KPG1 180002Z 02006KT 20/M01 A3006 RMK A01 T01951008  RH  025%=      5-min Rain = 0
KPG1 180003Z 01006KT 20/M01 A3006 RMK A01 T01971008  RH  025%=      5-min Rain = 0
KPG1 180004Z 02006KT 20/M01 A3006 RMK A01 T01971008  RH  025%=      5-min Rain = 0
KPG1 180005Z 02005KT 20/M01 A3006 RMK A01 T01981008  RH  025%=      5-min Rain = 0
KPG1 180006Z 03006KT 20/M01 A3006 RMK A01 T01971008  RH  025%=      5-min Rain = 0
KPG1 180007Z 02005KT 20/M01 A3006 RMK A01 T01951007  RH  026%=      5-min Rain = 0
KPG1 180008Z 03005KT 19/M01 A3006 RMK A01 T01931006  RH  026%=      5-min Rain = 0
KPG1 180009Z 03005KT 19/M01 A3006 RMK A01 T01901006  RH  027%=      5-min Rain = 0
KPG1 180010Z 02005KT 19/M01 A3006 RMK A01 T01881005  RH  027%=      5-min Rain = 0
KPG1 180011Z 02005KT 19/M01 A3006 RMK A01 T01861005  RH  028%=      5-min Rain = 0
KPG1 180012Z 02005KT 19/M00 A3006 RMK A01 T01851004  RH  028%=      5-min Rain = 0
KPG1 180013Z 03005KT 18/M00 A3006 RMK A01 T01831004  RH  028%=      5-min Rain = 0
KPG1 180014Z 03006KT 18/M00 A3006 RMK A01 T01831004  RH  028%=      5-min Rain = 0
KPG1 180015Z 03005KT 18/M00 A3006 RMK A01 T01831004  RH  028%=      5-min Rain = 0
KPG1 180016Z 03006KT 18/M00 A3006 RMK A01 T01831004  RH  028%=      5-min Rain = 0
KPG1 180017Z 02005KT 18/M00 A3006 RMK A01 T01821004  RH  028%=      5-min Rain = 0
KPG1 180018Z 03005KT 18/M00 A3007 RMK A01 T01821004  RH  029%=      5-min Rain = 0
KPG1 180019Z 02005KT 18/M00 A3007 RMK A01 T01811004  RH  029%=      5-min Rain = 0
KPG1 180020Z 02005KT 18/M00 A3007 RMK A01 T01801004  RH  029%=      5-min Rain = 0
KPG1 180021Z 01005KT 18/M00 A3007 RMK A01 T01801004  RH  029%=      5-min Rain = 0
KPG1 180022Z 02006KT 18/M00 A3007 RMK A01 T01801003  RH  029%=      5-min Rain = 0
KPG1 180023Z 02005KT 18/M00 A3007 RMK A01 T01791004  RH  029%=      5-min Rain = 0
KPG1 180024Z 01006KT 18/M00 A3007 RMK A01 T01791003  RH  029%=      5-min Rain = 0
KPG1 180025Z 01005KT 18/M00 A3007 RMK A01 T01781003  RH  029%=      5-min Rain = 0
KPG1 180026Z 01005KT 18/M01 A3007 RMK A01 T01781005  RH  029%=      5-min Rain = 0
KPG1 180027Z 01006KT 18/M01 A3007 RMK A01 T01821006  RH  028%=      5-min Rain = 0
KPG1 180028Z 01007KT 19/M01 A3007 RMK A01 T01871006  RH  027%=      5-min Rain = 0
KPG1 180029Z 01007KT 19/M01 A3007 RMK A01 T01911007  RH  026%=      5-min Rain = 0
KPG1 180030Z 02007KT 19/M01 A3007 RMK A01 T01941007  RH  026%=      5-min Rain = 0
KPG1 180031Z 01007KT 20/M01 A3007 RMK A01 T01951007  RH  026%=      5-min Rain = 0
KPG1 180032Z 01006KT 20/M01 A3007 RMK A01 T01951008  RH  026%=      5-min Rain = 0
KPG1 180033Z 01007KT 20/M01 A3007 RMK A01 T01951008  RH  025%=      5-min Rain = 0
KPG1 180034Z 01006KT 20/M01 A3007 RMK A01 T01951008  RH  025%=      5-min Rain = 0
KPG1 180035Z 01006KT 20/M01 A3007 RMK A01 T01951008  RH  025%=      5-min Rain = 0
KPG1 180036Z 00007KT 19/M01 A3007 RMK A01 T01941008  RH  026%=      5-min Rain = 0
KPG1 180037Z 00007KT 19/M01 A3007 RMK A01 T01931008  RH  026%=      5-min Rain = 0
KPG1 180038Z 36007KT 19/M01 A3007 RMK A01 T01931008  RH  026%=      5-min Rain = 0
KPG1 180039Z 36008KT 19/M01 A3007 RMK A01 T01921009  RH  026%=      5-min Rain = 0
KPG1 180040Z 36008KT 19/M01 A3008 RMK A01 T01921009  RH  026%=      5-min Rain = 0
KPG1 180041Z 36008KT 19/M01 A3008 RMK A01 T01921008  RH  026%=      5-min Rain = 0
KPG1 180042Z 35007KT 19/M01 A3008 RMK A01 T01921008  RH  026%=      5-min Rain = 0
KPG1 180043Z 35008KT 19/M01 A3007 RMK A01 T01911009  RH  026%=      5-min Rain = 0
KPG1 180044Z 00007KT 19/M01 A3007 RMK A01 T01911009  RH  026%=      5-min Rain = 0
KPG1 180045Z 35007KT 19/M01 A3007 RMK A01 T01911009  RH  026%=      5-min Rain = 0
KPG1 180046Z 35007KT 19/M01 A3007 RMK A01 T01911009  RH  026%=      5-min Rain = 0
KPG1 180047Z 35007KT 19/M01 A3007 RMK A01 T01911009  RH  026%=      5-min Rain = 0
KPG1 180048Z 35007KT 19/M01 A3007 RMK A01 T01901010  RH  026%=      5-min Rain = 0
KPG1 180049Z 36008KT 19/M01 A3007 RMK A01 T01901009  RH  026%=      5-min Rain = 0
KPG1 180050Z 35009KT 19/M01 A3008 RMK A01 T01901010  RH  026%=      5-min Rain = 0
KPG1 180051Z 35008KT 19/M01 A3008 RMK A01 T01911009  RH  026%=      5-min Rain = 0
KPG1 180052Z 35008KT 19/M01 A3008 RMK A01 T01921009  RH  026%=      5-min Rain = 0
KPG1 180053Z 35008KT 19/M01 A3008 RMK A01 T01911009  RH  026%=      5-min Rain = 0
KPG1 180054Z 35009KT 19/M01 A3008 RMK A01 T01911009  RH  026%=      5-min Rain = 0
KPG1 180055Z 35009KT 19/M01 A3008 RMK A01 T01911010  RH  026%=      5-min Rain = 0
KPG1 180056Z 35009KT 19/M01 A3008 RMK A01 T01911010  RH  026%=      5-min Rain = 0
KPG1 180057Z 35008KT 19/M01 A3008 RMK A01 T01921010  RH  026%=      5-min Rain = 0
KPG1 180058Z 35008KT 19/M01 A3008 RMK A01 T01931010  RH  025%=      5-min Rain = 0
KPG1 180059Z 35008KT 19/M01 A3008 RMK A01 T01921010  RH  025%=      5-min Rain = 0
KPG1 180100Z 35009KT 19/M01 A3008 RMK A01 T01931010  RH  025%=      5-min Rain = 0
KPG1 180101Z 35008KT 19/M01 A3008 RMK A01 T01931010  RH  025%=      5-min Rain = 0
KPG1 180102Z 35008KT 19/M01 A3008 RMK A01 T01941011  RH  025%=      5-min Rain = 0
KPG1 180103Z 35007KT 19/M01 A3008 RMK A01 T01931011  RH  025%=      5-min Rain = 0
KPG1 180104Z 36007KT 19/M01 A3008 RMK A01 T01921010  RH  025%=      5-min Rain = 0
KPG1 180105Z 36007KT 19/M01 A3008 RMK A01 T01921010  RH  026%=      5-min Rain = 0
KPG1 180106Z 00007KT 19/M01 A3009 RMK A01 T01911011  RH  026%=      5-min Rain = 0
KPG1 180107Z 35007KT 19/M01 A3009 RMK A01 T01901011  RH  026%=      5-min Rain = 0
KPG1 180108Z 35008KT 19/M01 A3009 RMK A01 T01901011  RH  026%=      5-min Rain = 0
KPG1 180109Z 35008KT 19/M01 A3009 RMK A01 T01911011  RH  026%=      5-min Rain = 0
KPG1 180110Z 36007KT 19/M01 A3009 RMK A01 T01911011  RH  026%=      5-min Rain = 0
KPG1 180111Z 36008KT 19/M01 A3009 RMK A01 T01901011  RH  026%=      5-min Rain = 0
KPG1 180112Z 35008KT 19/M01 A3009 RMK A01 T01891012  RH  026%=      5-min Rain = 0
KPG1 180113Z 36008KT 19/M01 A3009 RMK A01 T01911011  RH  026%=      5-min Rain = 0
KPG1 180114Z 35008KT 19/M01 A3009 RMK A01 T01911012  RH  025%=      5-min Rain = 0
KPG1 180115Z 35009KT 19/M01 A3009 RMK A01 T01901012  RH  025%=      5-min Rain = 0
KPG1 180116Z 36008KT 19/M01 A3009 RMK A01 T01901012  RH  025%=      5-min Rain = 0
KPG1 180117Z 35009KT 19/M01 A3009 RMK A01 T01901013  RH  025%=      5-min Rain = 0
KPG1 180118Z 35009KT 19/M01 A3009 RMK A01 T01891013  RH  025%=      5-min Rain = 0
KPG1 180119Z 35009KT 19/M01 A3009 RMK A01 T01901014  RH  025%=      5-min Rain = 0
KPG1 180120Z 35008KT 19/M01 A3009 RMK A01 T01911014  RH  025%=      5-min Rain = 0
KPG1 180121Z 35008KT 19/M01 A3009 RMK A01 T01911014  RH  025%=      5-min Rain = 0
KPG1 180122Z 35008KT 19/M01 A3009 RMK A01 T01911014  RH  025%=      5-min Rain = 0
KPG1 180123Z 35008KT 19/M01 A3009 RMK A01 T01901014  RH  025%=      5-min Rain = 0
KPG1 180124Z 35008KT 19/M01 A3009 RMK A01 T01901014  RH  025%=      5-min Rain = 0
KPG1 180125Z 00008KT 19/M01 A3009 RMK A01 T01901014  RH  025%=      5-min Rain = 0
KPG1 180126Z 00009KT 19/M02 A3009 RMK A01 T01891015  RH  025%=      5-min Rain = 0
KPG1 180127Z 36008KT 19/M02 A3009 RMK A01 T01891015  RH  025%=      5-min Rain = 0
KPG1 180128Z 35008KT 19/M01 A3009 RMK A01 T01891014  RH  025%=      5-min Rain = 0
KPG1 180129Z 35008KT 19/M01 A3009 RMK A01 T01891014  RH  025%=      5-min Rain = 0
KPG1 180130Z 35009KT 19/M01 A3009 RMK A01 T01891014  RH  025%=      5-min Rain = 0
KPG1 180131Z 35009KT 19/M01 A3009 RMK A01 T01881014  RH  025%=      5-min Rain = 0
KPG1 180132Z 35009KT 19/M01 A3009 RMK A01 T01891014  RH  025%=      5-min Rain = 0
KPG1 180133Z 00008KT 19/M02 A3009 RMK A01 T01891015  RH  025%=      5-min Rain = 0
KPG1 180134Z 03009KT 19/M01 A301 RMK A01 T01891014  RH  025%=      5-min Rain = 0
KPG1 180135Z 05008KT 19/M01 A301 RMK A01 T01871013  RH  026%=      5-min Rain = 0
KPG1 180136Z 06012KT 18/M01 A301 RMK A01 T01831011  RH  027%=      5-min Rain = 0
KPG1 180137Z 05012KT 18/M01 A301 RMK A01 T01791010  RH  028%=      5-min Rain = 0
KPG1 180138Z 03012KT 18/M01 A301 RMK A01 T01791011  RH  028%=      5-min Rain = 0
KPG1 180139Z 03011KT 18/M01 A301 RMK A01 T01821011  RH  027%=      5-min Rain = 0
KPG1 180140Z 02010KT 18/M01 A301 RMK A01 T01831010  RH  027%=      5-min Rain = 0
KPG1 180141Z 03010KT 18/M01 A301 RMK A01 T01821010  RH  027%=      5-min Rain = 0
KPG1 180142Z 03011KT 18/M01 A301 RMK A01 T01801010  RH  028%=      5-min Rain = 0
KPG1 180143Z 04010KT 18/M01 A301 RMK A01 T01771009  RH  028%=      5-min Rain = 0
KPG1 180144Z 04010KT 18/M01 A301 RMK A01 T01751009  RH  029%=      5-min Rain = 0
KPG1 180145Z 03009KT 17/M01 A301 RMK A01 T01741009  RH  029%=      5-min Rain = 0
KPG1 180146Z 02011KT 17/M01 A301 RMK A01 T01731008  RH  029%=      5-min Rain = 0
KPG1 180147Z 02010KT 17/M01 A301 RMK A01 T01711007  RH  030%=      5-min Rain = 0
KPG1 180148Z 02010KT 17/M01 A301 RMK A01 T01701007  RH  030%=      5-min Rain = 0
KPG1 180149Z 02009KT 17/M01 A301 RMK A01 T01701006  RH  030%=      5-min Rain = 0
KPG1 180150Z 02009KT 17/M01 A301 RMK A01 T01671006  RH  031%=      5-min Rain = 0
KPG1 180151Z 02011KT 17/M01 A301 RMK A01 T01661006  RH  031%=      5-min Rain = 0
KPG1 180152Z 01010KT 17/M01 A301 RMK A01 T01651005  RH  031%=      5-min Rain = 0
KPG1 180153Z 00009KT 17/M01 A301 RMK A01 T01651005  RH  031%=      5-min Rain = 0
KPG1 180154Z 01011KT 17/M01 A301 RMK A01 T01651005  RH  031%=      5-min Rain = 0
KPG1 180155Z 01011KT 17/M01 A301 RMK A01 T01651005  RH  031%=      5-min Rain = 0
KPG1 180156Z 01011KT 17/M01 A301 RMK A01 T01651005  RH  031%=      5-min Rain = 0
KPG1 180157Z 01010KT 17/M01 A301 RMK A01 T01651005  RH  031%=      5-min Rain = 0
KPG1 180158Z 02011KT 17/M01 A3011 RMK A01 T01651005  RH  031%=      5-min Rain = 0
KPG1 180159Z 03010KT 17/M01 A3011 RMK A01 T01651005  RH  031%=      5-min Rain = 0
KPG1 180200Z 03012KT 16/M00 A3011 RMK A01 T01621004  RH  032%=      5-min Rain = 0
KPG1 180201Z 02012KT 16/M00 A3011 RMK A01 T01591004  RH  033%=      5-min Rain = 0
KPG1 180202Z 01012KT 16/M00 A3011 RMK A01 T01581004  RH  033%=      5-min Rain = 0
KPG1 180203Z 02011KT 16/M00 A3011 RMK A01 T01611004  RH  032%=      5-min Rain = 0
KPG1 180204Z 02011KT 16/M00 A3011 RMK A01 T01641003  RH  032%=      5-min Rain = 0
KPG1 180205Z 02010KT 16/M00 A3011 RMK A01 T01621004  RH  032%=      5-min Rain = 0
KPG1 180206Z 02010KT 16/M00 A3011 RMK A01 T01621004  RH  032%=      5-min Rain = 0
KPG1 180207Z 01011KT 16/M00 A3011 RMK A01 T01641004  RH  032%=      5-min Rain = 0
KPG1 180208Z 01010KT 17/M01 A3011 RMK A01 T01661005  RH  031%=      5-min Rain = 0
KPG1 180209Z 01010KT 17/M00 A3011 RMK A01 T01671004  RH  031%=      5-min Rain = 0
KPG1 180210Z 01010KT 17/M00 A3011 RMK A01 T01671004  RH  031%=      5-min Rain = 0
KPG1 180211Z 02010KT 17/M00 A3011 RMK A01 T01661004  RH  031%=      5-min Rain = 0
KPG1 180212Z 02010KT 17/M00 A3011 RMK A01 T01651004  RH  032%=      5-min Rain = 0
KPG1 180213Z 02010KT 17/M00 A3011 RMK A01 T01651004  RH  032%=      5-min Rain = 0
KPG1 180214Z 02010KT 17/M01 A3011 RMK A01 T01651005  RH  031%=      5-min Rain = 0
KPG1 180215Z 02011KT 16/M00 A3011 RMK A01 T01631004  RH  032%=      5-min Rain = 0
KPG1 180216Z 01013KT 16/M01 A3011 RMK A01 T01621005  RH  032%=      5-min Rain = 0
KPG1 180217Z 02012KT 17/M00 A3011 RMK A01 T01661004  RH  031%=      5-min Rain = 0
KPG1 180218Z 01012KT 17/M01 A3011 RMK A01 T01671005  RH  031%=      5-min Rain = 0
KPG1 180219Z 01013KT 17/M01 A3011 RMK A01 T01681005  RH  031%=      5-min Rain = 0
KPG1 180220Z 01013KT 17/M01 A3011 RMK A01 T01691005  RH  031%=      5-min Rain = 0
KPG1 180221Z 01013KT 17/M01 A3011 RMK A01 T01701006  RH  030%=      5-min Rain = 0
KPG1 180222Z 01013KT 17/M01 A3011 RMK A01 T01721006  RH  030%=      5-min Rain = 0
KPG1 180223Z 01013KT 17/M01 A3011 RMK A01 T01731006  RH  030%=      5-min Rain = 0
KPG1 180224Z 01014KT 17/M01 A3011 RMK A01 T01741006  RH  029%=      5-min Rain = 0
KPG1 180225Z 01013KT 17/M01 A3011 RMK A01 T01741006  RH  029%=      5-min Rain = 0
KPG1 180226Z 01012KT 17/M01 A3011 RMK A01 T01741006  RH  029%=      5-min Rain = 0
KPG1 180227Z 01012KT 17/M01 A3011 RMK A01 T01741006  RH  029%=      5-min Rain = 0
KPG1 180228Z 01013KT 17/M01 A3011 RMK A01 T01741006  RH  029%=      5-min Rain = 0
KPG1 180229Z 01013KT 17/M01 A3011 RMK A01 T01741007  RH  029%=      5-min Rain = 0
KPG1 180230Z 01013KT 17/M01 A3011 RMK A01 T01741006  RH  029%=      5-min Rain = 0
KPG1 180231Z 01011KT 17/M01 A3011 RMK A01 T01741006  RH  029%=      5-min Rain = 0
KPG1 180232Z 01013KT 17/M01 A3011 RMK A01 T01741006  RH  030%=      5-min Rain = 0
KPG1 180233Z 02014KT 17/M01 A3011 RMK A01 T01731005  RH  030%=      5-min Rain = 0
KPG1 180234Z 02015KT 17/M01 A3011 RMK A01 T01741005  RH  030%=      5-min Rain = 0
KPG1 180235Z 01013KT 17/M00 A3011 RMK A01 T01741004  RH  030%=      5-min Rain = 0
KPG1 180236Z 01012KT 17/M00 A3011 RMK A01 T01741004  RH  030%=      5-min Rain = 0
KPG1 180237Z 01014KT 17/M00 A3011 RMK A01 T01731004  RH  030%=      5-min Rain = 0
KPG1 180238Z 01013KT 17/M00 A3011 RMK A01 T01721004  RH  030%=      5-min Rain = 0
KPG1 180239Z 02015KT 17/M00 A3011 RMK A01 T01721004  RH  030%=      5-min Rain = 0
KPG1 180240Z 02014KT 17/M00 A3011 RMK A01 T01721003  RH  031%=      5-min Rain = 0
KPG1 180241Z 02014KT 17/M00 A3011 RMK A01 T01721003  RH  030%=      5-min Rain = 0
KPG1 180242Z 02014KT 17/M00 A3011 RMK A01 T01721003  RH  030%=      5-min Rain = 0
KPG1 180243Z 02015KT 17/M00 A3011 RMK A01 T01721002  RH  031%=      5-min Rain = 0
KPG1 180244Z 02015KT 17/M00 A3011 RMK A01 T01721001  RH  031%=      5-min Rain = 0
KPG1 180245Z 01014KT 17/M00 A3011 RMK A01 T01721001  RH  031%=      5-min Rain = 0
KPG1 180246Z 01012KT 17/M00 A3011 RMK A01 T01721001  RH  031%=      5-min Rain = 0
KPG1 180247Z 02014KT 17/M00 A3011 RMK A01 T01711001  RH  031%=      5-min Rain = 0
KPG1 180248Z 02014KT 17/M00 A3011 RMK A01 T01711001  RH  031%=      5-min Rain = 0
KPG1 180249Z 02015KT 17/00 A3011 RMK A01 T01710001  RH  031%=      5-min Rain = 0
KPG1 180250Z 01013KT 17/00 A3011 RMK A01 T01710001  RH  031%=      5-min Rain = 0
KPG1 180251Z 01012KT 17/00 A3011 RMK A01 T01710000  RH  031%=      5-min Rain = 0
KPG1 180252Z 02015KT 17/00 A3011 RMK A01 T017000-0  RH  031%=      5-min Rain = 0
KPG1 180253Z 02016KT 17/00 A3011 RMK A01 T01700001  RH  032%=      5-min Rain = 0
KPG1 180254Z 02014KT 17/00 A3011 RMK A01 T01700001  RH  032%=      5-min Rain = 0
KPG1 180255Z 02014KT 17/00 A3012 RMK A01 T01700000  RH  032%=      5-min Rain = 0
KPG1 180256Z 02015KT 17/00 A3011 RMK A01 T01700001  RH  032%=      5-min Rain = 0
KPG1 180257Z 02016KT 17/00 A3011 RMK A01 T01690002  RH  032%=      5-min Rain = 0
KPG1 180258Z 02014KT 17/00 A3012 RMK A01 T01690002  RH  032%=      5-min Rain = 0
KPG1 180259Z 02014KT 17/00 A3012 RMK A01 T01690001  RH  032%=      5-min Rain = 0
KPG1 180300Z 02015KT 17/00 A3012 RMK A01 T01690001  RH  032%=      5-min Rain = 0
KPG1 180301Z 02014KT 17/00 A3012 RMK A01 T01690001  RH  032%=      5-min Rain = 0
KPG1 180302Z 02015KT 17/00 A3012 RMK A01 T01690002  RH  032%=      5-min Rain = 0
KPG1 180303Z 02017KT 17/00 A3012 RMK A01 T01690002  RH  032%=      5-min Rain = 0
KPG1 180304Z 02014KT 17/00 A3012 RMK A01 T01690001  RH  032%=      5-min Rain = 0
KPG1 180305Z 01014KT 17/00 A3012 RMK A01 T01690001  RH  032%=      5-min Rain = 0
KPG1 180306Z 01015KT 17/00 A3012 RMK A01 T01690002  RH  032%=      5-min Rain = 0
KPG1 180307Z 01013KT 17/00 A3012 RMK A01 T01680001  RH  032%=      5-min Rain = 0
KPG1 180308Z 02015KT 17/00 A3012 RMK A01 T01680002  RH  032%=      5-min Rain = 0
KPG1 180309Z 01014KT 17/00 A3012 RMK A01 T01680002  RH  033%=      5-min Rain = 0
KPG1 180310Z 01013KT 17/00 A3012 RMK A01 T01680002  RH  033%=      5-min Rain = 0
KPG1 180311Z 02013KT 17/00 A3012 RMK A01 T01670002  RH  033%=      5-min Rain = 0
KPG1 180312Z 02014G19KT 17/00 A3012 RMK A01 T01660002  RH  033%=      5-min Rain = 0
KPG1 180313Z 02015KT 17/00 A3012 RMK A01 T01660002  RH  033%=      5-min Rain = 0
KPG1 180314Z 02016KT 17/00 A3012 RMK A01 T01660002  RH  033%=      5-min Rain = 0
KPG1 180315Z 01014KT 17/00 A3012 RMK A01 T01660002  RH  033%=      5-min Rain = 0
KPG1 180316Z 02015KT 17/00 A3012 RMK A01 T01660002  RH  033%=      5-min Rain = 0
KPG1 180317Z 01013KT 17/00 A3012 RMK A01 T01660003  RH  033%=      5-min Rain = 0
KPG1 180318Z 01014KT 17/00 A3012 RMK A01 T01660002  RH  033%=      5-min Rain = 0
KPG1 180319Z 02014KT 17/00 A3012 RMK A01 T01650003  RH  033%=      5-min Rain = 0
KPG1 180320Z 01015KT 17/00 A3012 RMK A01 T01650003  RH  033%=      5-min Rain = 0
KPG1 180321Z 01015KT 17/00 A3012 RMK A01 T01650003  RH  033%=      5-min Rain = 0
KPG1 180322Z 01014KT 16/00 A3012 RMK A01 T01640002  RH  033%=      5-min Rain = 0
KPG1 180323Z 01014KT 16/00 A3012 RMK A01 T01640003  RH  034%=      5-min Rain = 0
KPG1 180324Z 01014KT 16/00 A3012 RMK A01 T01640003  RH  034%=      5-min Rain = 0
KPG1 180325Z 02013KT 16/00 A3012 RMK A01 T01640003  RH  034%=      5-min Rain = 0
KPG1 180326Z 01014KT 16/00 A3012 RMK A01 T01630003  RH  034%=      5-min Rain = 0
KPG1 180327Z 02015KT 16/00 A3012 RMK A01 T01630003  RH  034%=      5-min Rain = 0
KPG1 180328Z 02014KT 16/00 A3012 RMK A01 T01630004  RH  034%=      5-min Rain = 0
KPG1 180329Z 01014KT 16/00 A3012 RMK A01 T01630004  RH  034%=      5-min Rain = 0
KPG1 180330Z 02013KT 16/00 A3012 RMK A01 T01630004  RH  034%=      5-min Rain = 0
KPG1 180331Z 01015KT 16/00 A3012 RMK A01 T01630004  RH  034%=      5-min Rain = 0
KPG1 180332Z 02014KT 16/00 A3012 RMK A01 T01620004  RH  034%=      5-min Rain = 0
KPG1 180333Z 01012KT 16/00 A3012 RMK A01 T01620004  RH  034%=      5-min Rain = 0
KPG1 180334Z 02014KT 16/00 A3012 RMK A01 T01620004  RH  034%=      5-min Rain = 0
KPG1 180335Z 02014KT 16/00 A3012 RMK A01 T01610004  RH  034%=      5-min Rain = 0
KPG1 180336Z 02013KT 16/00 A3012 RMK A01 T01620004  RH  034%=      5-min Rain = 0
KPG1 180337Z 02013KT 16/00 A3012 RMK A01 T01610004  RH  034%=      5-min Rain = 0
KPG1 180338Z 02015KT 16/00 A3012 RMK A01 T01610004  RH  034%=      5-min Rain = 0
KPG1 180339Z 01013KT 16/00 A3012 RMK A01 T01610004  RH  034%=      5-min Rain = 0
KPG1 180340Z 02013KT 16/00 A3012 RMK A01 T01600004  RH  035%=      5-min Rain = 0
KPG1 180341Z 02013KT 16/00 A3012 RMK A01 T01600004  RH  035%=      5-min Rain = 0
KPG1 180342Z 02013KT 16/01 A3012 RMK A01 T01600005  RH  035%=      5-min Rain = 0
KPG1 180343Z 02013KT 16/01 A3012 RMK A01 T01600005  RH  035%=      5-min Rain = 0
KPG1 180344Z 02014KT 16/01 A3012 RMK A01 T01590005  RH  035%=      5-min Rain = 0
KPG1 180345Z 02013KT 16/00 A3012 RMK A01 T01590004  RH  035%=      5-min Rain = 0
KPG1 180346Z 01012KT 16/00 A3012 RMK A01 T01580004  RH  035%=      5-min Rain = 0
KPG1 180347Z 01012KT 16/00 A3012 RMK A01 T01580004  RH  035%=      5-min Rain = 0
KPG1 180348Z 01013KT 16/00 A3012 RMK A01 T01580004  RH  035%=      5-min Rain = 0
KPG1 180349Z 01013KT 16/00 A3012 RMK A01 T01570004  RH  035%=      5-min Rain = 0
KPG1 180350Z 01014KT 16/00 A3012 RMK A01 T01570004  RH  035%=      5-min Rain = 0
KPG1 180351Z 01012KT 16/01 A3012 RMK A01 T01570005  RH  036%=      5-min Rain = 0
KPG1 180352Z 02012KT 16/01 A3012 RMK A01 T01560005  RH  036%=      5-min Rain = 0
KPG1 180353Z 01011KT 16/01 A3012 RMK A01 T01550005  RH  036%=      5-min Rain = 0
KPG1 180354Z 01011KT 16/01 A3012 RMK A01 T01550005  RH  036%=      5-min Rain = 0
KPG1 180355Z 01014KT 16/01 A3012 RMK A01 T01550005  RH  036%=      5-min Rain = 0
KPG1 180356Z 01014KT 16/01 A3012 RMK A01 T01550005  RH  036%=      5-min Rain = 0
KPG1 180357Z 02012KT 16/01 A3012 RMK A01 T01550005  RH  036%=      5-min Rain = 0
KPG1 180358Z 01013KT 16/01 A3012 RMK A01 T01560005  RH  036%=      5-min Rain = 0
KPG1 180359Z 01015KT 16/01 A3012 RMK A01 T01550005  RH  036%=      5-min Rain = 0
KPG1 180400Z 01013KT 16/01 A3012 RMK A01 T01550005  RH  036%=      5-min Rain = 0
KPG1 180401Z 01013KT 16/00 A3012 RMK A01 T01550004  RH  036%=      5-min Rain = 0
KPG1 180402Z 01014KT 15/00 A3012 RMK A01 T01540004  RH  036%=      5-min Rain = 0
KPG1 180403Z 01014KT 15/00 A3012 RMK A01 T01540004  RH  036%=      5-min Rain = 0
KPG1 180404Z 01015KT 15/00 A3012 RMK A01 T01540004  RH  036%=      5-min Rain = 0
KPG1 180405Z 01015KT 15/01 A3012 RMK A01 T01540005  RH  036%=      5-min Rain = 0
KPG1 180406Z 01016KT 15/00 A3012 RMK A01 T01530004  RH  036%=      5-min Rain = 0
KPG1 180407Z 01015KT 15/00 A3012 RMK A01 T01530004  RH  036%=      5-min Rain = 0
KPG1 180408Z 01015KT 15/00 A3012 RMK A01 T01530004  RH  036%=      5-min Rain = 0
KPG1 180409Z 01015KT 15/01 A3012 RMK A01 T01530005  RH  037%=      5-min Rain = 0
KPG1 180410Z 01015KT 15/01 A3012 RMK A01 T01530005  RH  037%=      5-min Rain = 0
KPG1 180411Z 01015KT 15/01 A3012 RMK A01 T01520005  RH  037%=      5-min Rain = 0
KPG1 180412Z 01014KT 15/01 A3012 RMK A01 T01520005  RH  037%=      5-min Rain = 0
KPG1 180413Z 01013KT 15/01 A3012 RMK A01 T01520005  RH  037%=      5-min Rain = 0
KPG1 180414Z 01012KT 15/01 A3012 RMK A01 T01510005  RH  037%=      5-min Rain = 0
KPG1 180415Z 01012KT 15/00 A3012 RMK A01 T01500004  RH  037%=      5-min Rain = 0
KPG1 180416Z 01014KT 15/01 A3012 RMK A01 T01500005  RH  037%=      5-min Rain = 0
KPG1 180417Z 01013KT 15/01 A3012 RMK A01 T01500005  RH  037%=      5-min Rain = 0
KPG1 180418Z 01013KT 15/01 A3012 RMK A01 T01490005  RH  037%=      5-min Rain = 0
KPG1 180419Z 01014KT 15/01 A3012 RMK A01 T01490005  RH  037%=      5-min Rain = 0
KPG1 180420Z 01014KT 15/01 A3012 RMK A01 T01490005  RH  037%=      5-min Rain = 0
KPG1 180421Z 00014KT 15/01 A3012 RMK A01 T01490005  RH  037%=      5-min Rain = 0
KPG1 180422Z 00013KT 15/01 A3012 RMK A01 T01490005  RH  037%=      5-min Rain = 0
KPG1 180423Z 00012KT 15/01 A3012 RMK A01 T01480005  RH  038%=      5-min Rain = 0
KPG1 180424Z 01013KT 15/01 A3012 RMK A01 T01470005  RH  038%=      5-min Rain = 0
KPG1 180425Z 01014KT 15/01 A3012 RMK A01 T01470005  RH  038%=      5-min Rain = 0
KPG1 180426Z 00012KT 15/01 A3012 RMK A01 T01470005  RH  038%=      5-min Rain = 0
KPG1 180427Z 00013KT 15/01 A3012 RMK A01 T01460005  RH  038%=      5-min Rain = 0
KPG1 180428Z 00015KT 15/01 A3012 RMK A01 T01460005  RH  038%=      5-min Rain = 0
KPG1 180429Z 00015KT 15/01 A3012 RMK A01 T01470005  RH  038%=      5-min Rain = 0
KPG1 180430Z 00014KT 15/01 A3012 RMK A01 T01460005  RH  038%=      5-min Rain = 0
KPG1 180431Z 01014KT 15/01 A3012 RMK A01 T01470005  RH  038%=      5-min Rain = 0
KPG1 180432Z 00013KT 15/01 A3012 RMK A01 T01460006  RH  038%=      5-min Rain = 0
KPG1 180433Z 00013KT 15/01 A3012 RMK A01 T01460005  RH  038%=      5-min Rain = 0
KPG1 180434Z 00013KT 15/01 A3012 RMK A01 T01450006  RH  038%=      5-min Rain = 0
KPG1 180435Z 01012KT 15/01 A3012 RMK A01 T01450006  RH  039%=      5-min Rain = 0
KPG1 180436Z 01012KT 15/01 A3012 RMK A01 T01450006  RH  039%=      5-min Rain = 0
KPG1 180437Z 01012KT 15/01 A3012 RMK A01 T01450006  RH  039%=      5-min Rain = 0
KPG1 180438Z 01014KT 15/01 A3012 RMK A01 T01450006  RH  039%=      5-min Rain = 0
KPG1 180439Z 00014KT 14/01 A3012 RMK A01 T01440006  RH  039%=      5-min Rain = 0
KPG1 180440Z 01012KT 15/01 A3012 RMK A01 T01450006  RH  039%=      5-min Rain = 0
KPG1 180441Z 00013KT 15/01 A3012 RMK A01 T01450006  RH  039%=      5-min Rain = 0
KPG1 180442Z 01014KT 14/01 A3012 RMK A01 T01440006  RH  039%=      5-min Rain = 0
KPG1 180443Z 00013KT 14/01 A3012 RMK A01 T01440006  RH  039%=      5-min Rain = 0
KPG1 180444Z 00013KT 14/01 A3012 RMK A01 T01440006  RH  039%=      5-min Rain = 0
KPG1 180445Z 00013KT 14/01 A3012 RMK A01 T01440006  RH  039%=      5-min Rain = 0
KPG1 180446Z 01012KT 14/01 A3012 RMK A01 T01430006  RH  039%=      5-min Rain = 0
KPG1 180447Z 00014KT 14/01 A3012 RMK A01 T01430006  RH  039%=      5-min Rain = 0
KPG1 180448Z 01012KT 14/01 A3012 RMK A01 T01430005  RH  039%=      5-min Rain = 0
KPG1 180449Z 01014KT 14/01 A3012 RMK A01 T01430006  RH  039%=      5-min Rain = 0
KPG1 180450Z 00013KT 14/01 A3012 RMK A01 T01430006  RH  039%=      5-min Rain = 0
KPG1 180451Z 00012KT 14/01 A3012 RMK A01 T01430006  RH  039%=      5-min Rain = 0
KPG1 180452Z 00013KT 14/01 A3012 RMK A01 T01430006  RH  039%=      5-min Rain = 0
KPG1 180453Z 00014KT 14/01 A3012 RMK A01 T01430006  RH  039%=      5-min Rain = 0
KPG1 180454Z 01014KT 14/01 A3012 RMK A01 T01420006  RH  039%=      5-min Rain = 0
KPG1 180455Z 00013KT 14/01 A3012 RMK A01 T01420006  RH  039%=      5-min Rain = 0
KPG1 180456Z 00013KT 14/01 A3012 RMK A01 T01420006  RH  039%=      5-min Rain = 0
KPG1 180457Z 00013KT 14/01 A3012 RMK A01 T01420006  RH  040%=      5-min Rain = 0
KPG1 180458Z 00013KT 14/01 A3012 RMK A01 T01420006  RH  040%=      5-min Rain = 0
KPG1 180459Z 36015KT 14/01 A3012 RMK A01 T01420006  RH  039%=      5-min Rain = 0
KPG1 180500Z 00014KT 14/01 A3012 RMK A01 T01420006  RH  039%=      5-min Rain = 0
KPG1 180501Z 00012KT 14/01 A3012 RMK A01 T01420006  RH  039%=      5-min Rain = 0
KPG1 180502Z 00014KT 14/01 A3012 RMK A01 T01410006  RH  040%=      5-min Rain = 0
KPG1 180503Z 00011KT 14/01 A3012 RMK A01 T01410006  RH  040%=      5-min Rain = 0
KPG1 180504Z 00014KT 14/01 A3012 RMK A01 T01410006  RH  040%=      5-min Rain = 0
KPG1 180505Z 00013KT 14/01 A3013 RMK A01 T01400006  RH  040%=      5-min Rain = 0
KPG1 180506Z 36014KT 14/01 A3013 RMK A01 T01410006  RH  040%=      5-min Rain = 0
KPG1 180507Z 00012KT 14/01 A3013 RMK A01 T01410006  RH  040%=      5-min Rain = 0
KPG1 180508Z 00012KT 14/01 A3013 RMK A01 T01400006  RH  040%=      5-min Rain = 0
KPG1 180509Z 00013KT 14/01 A3013 RMK A01 T01390006  RH  040%=      5-min Rain = 0
KPG1 180510Z 00013KT 14/01 A3013 RMK A01 T01400006  RH  040%=      5-min Rain = 0
KPG1 180511Z 00013KT 14/01 A3013 RMK A01 T01390006  RH  040%=      5-min Rain = 0
KPG1 180512Z 01011KT 14/01 A3013 RMK A01 T01390006  RH  040%=      5-min Rain = 0
KPG1 180513Z 00012KT 14/01 A3013 RMK A01 T01390006  RH  040%=      5-min Rain = 0
KPG1 180514Z 00013KT 14/01 A3013 RMK A01 T01390006  RH  040%=      5-min Rain = 0
KPG1 180515Z 00012KT 14/01 A3013 RMK A01 T01390007  RH  040%=      5-min Rain = 0
KPG1 180516Z 01011KT 14/01 A3013 RMK A01 T01390007  RH  041%=      5-min Rain = 0
KPG1 180517Z 01012KT 14/01 A3013 RMK A01 T01380007  RH  041%=      5-min Rain = 0
KPG1 180518Z 01011KT 14/01 A3013 RMK A01 T01380007  RH  041%=      5-min Rain = 0
KPG1 180519Z 01011KT 14/01 A3013 RMK A01 T01380007  RH  041%=      5-min Rain = 0
KPG1 180520Z 01011KT 14/01 A3013 RMK A01 T01380007  RH  041%=      5-min Rain = 0
KPG1 180521Z 00014KT 14/01 A3013 RMK A01 T01370006  RH  041%=      5-min Rain = 0
KPG1 180522Z 36013KT 14/01 A3013 RMK A01 T01370007  RH  041%=      5-min Rain = 0
KPG1 180523Z 00013KT 14/01 A3013 RMK A01 T01380007  RH  041%=      5-min Rain = 0
KPG1 180524Z 00013KT 14/01 A3013 RMK A01 T01380007  RH  041%=      5-min Rain = 0
KPG1 180525Z 36014KT 14/01 A3013 RMK A01 T01380007  RH  041%=      5-min Rain = 0
KPG1 180526Z 00013KT 14/01 A3013 RMK A01 T01380007  RH  041%=      5-min Rain = 0
KPG1 180527Z 00013KT 14/01 A3013 RMK A01 T01380007  RH  041%=      5-min Rain = 0
KPG1 180528Z 00012KT 14/01 A3013 RMK A01 T01380007  RH  041%=      5-min Rain = 0
KPG1 180529Z 00011KT 14/01 A3013 RMK A01 T01380007  RH  041%=      5-min Rain = 0
KPG1 180530Z 00012KT 14/01 A3012 RMK A01 T01380007  RH  041%=      5-min Rain = 0
KPG1 180531Z 00012KT 14/01 A3012 RMK A01 T01370007  RH  041%=      5-min Rain = 0
KPG1 180532Z 00012KT 14/01 A3012 RMK A01 T01370007  RH  041%=      5-min Rain = 0
KPG1 180533Z 00011KT 14/01 A3012 RMK A01 T01370007  RH  041%=      5-min Rain = 0
KPG1 180534Z 00012KT 14/01 A3012 RMK A01 T01370007  RH  041%=      5-min Rain = 0
KPG1 180535Z 00013KT 14/01 A3012 RMK A01 T01370007  RH  041%=      5-min Rain = 0
KPG1 180536Z 01012KT 14/01 A3012 RMK A01 T01370007  RH  041%=      5-min Rain = 0
KPG1 180537Z 00012KT 14/01 A3012 RMK A01 T01370007  RH  041%=      5-min Rain = 0
KPG1 180538Z 00011KT 14/01 A3012 RMK A01 T01370007  RH  041%=      5-min Rain = 0
KPG1 180539Z 01011KT 14/01 A3012 RMK A01 T01370007  RH  041%=      5-min Rain = 0
KPG1 180540Z 00012KT 14/01 A3012 RMK A01 T01370007  RH  041%=      5-min Rain = 0
KPG1 180541Z 00012KT 14/01 A3012 RMK A01 T01360007  RH  041%=      5-min Rain = 0
KPG1 180542Z 00013KT 14/01 A3012 RMK A01 T01370007  RH  041%=      5-min Rain = 0
KPG1 180543Z 01012KT 14/01 A3012 RMK A01 T01360007  RH  041%=      5-min Rain = 0
KPG1 180544Z 00012KT 14/01 A3012 RMK A01 T01360007  RH  041%=      5-min Rain = 0
KPG1 180545Z 01012KT 14/01 A3012 RMK A01 T01360007  RH  041%=      5-min Rain = 0
KPG1 180546Z 01011KT 14/01 A3012 RMK A01 T01360007  RH  041%=      5-min Rain = 0
KPG1 180547Z 02012KT 14/01 A3012 RMK A01 T01360007  RH  041%=      5-min Rain = 0
KPG1 180548Z 00012KT 14/01 A3012 RMK A01 T01370007  RH  041%=      5-min Rain = 0
KPG1 180549Z 01012KT 14/01 A3012 RMK A01 T01370007  RH  041%=      5-min Rain = 0
KPG1 180550Z 01012KT 14/01 A3012 RMK A01 T01370007  RH  041%=      5-min Rain = 0
KPG1 180551Z 01010KT 14/01 A3012 RMK A01 T01360007  RH  041%=      5-min Rain = 0
KPG1 180552Z 00010KT 14/01 A3012 RMK A01 T01360007  RH  041%=      5-min Rain = 0
KPG1 180553Z 01012KT 14/01 A3012 RMK A01 T01350007  RH  041%=      5-min Rain = 0
KPG1 180554Z 00012KT 14/01 A3012 RMK A01 T01360008  RH  041%=      5-min Rain = 0
KPG1 180555Z 00013KT 14/01 A3012 RMK A01 T01370008  RH  041%=      5-min Rain = 0
KPG1 180556Z 01012KT 14/01 A3012 RMK A01 T01380008  RH  041%=      5-min Rain = 0
KPG1 180557Z 00011KT 14/01 A3012 RMK A01 T01380007  RH  041%=      5-min Rain = 0
KPG1 180558Z 01011KT 14/01 A3012 RMK A01 T01380007  RH  041%=      5-min Rain = 0
KPG1 180559Z 02011KT 14/01 A3012 RMK A01 T01380007  RH  041%=      5-min Rain = 0

Page generated in 0.0858 seconds.